Observation data for Mertzon on 03/11/2018      Previous  Date  Next       Current Mesonet Observations  Soil Data  Daily Summary Page  Observations in Plain Language
KME1 110600Z 27008KT 23/M04 A2984 RMK A01 T02341038  RH  016%=      5-min Rain = 0
KME1 110601Z 27008KT 23/M04 A2984 RMK A01 T02341039  RH  016%=      5-min Rain = 0
KME1 110602Z 27006KT 24/M04 A2984 RMK A01 T02351039  RH  016%=      5-min Rain = 0
KME1 110603Z 26007KT 24/M04 A2984 RMK A01 T02351039  RH  016%=      5-min Rain = 0
KME1 110604Z 27009KT 24/M04 A2984 RMK A01 T02351040  RH  016%=      5-min Rain = 0
KME1 110605Z 27007KT 24/M04 A2984 RMK A01 T02361040  RH  016%=      5-min Rain = 0
KME1 110606Z 27008KT 24/M04 A2984 RMK A01 T02361039  RH  016%=      5-min Rain = 0
KME1 110607Z 27008KT 24/M04 A2984 RMK A01 T02361039  RH  016%=      5-min Rain = 0
KME1 110608Z 27008KT 24/M04 A2984 RMK A01 T02361039  RH  016%=      5-min Rain = 0
KME1 110609Z 27005KT 24/M04 A2984 RMK A01 T02361039  RH  016%=      5-min Rain = 0
KME1 110610Z 27007KT 24/M04 A2984 RMK A01 T02351039  RH  016%=      5-min Rain = 0
KME1 110611Z 27007KT 23/M04 A2984 RMK A01 T02341039  RH  016%=      5-min Rain = 0
KME1 110612Z 27007KT 23/M04 A2984 RMK A01 T02341039  RH  016%=      5-min Rain = 0
KME1 110613Z 28008KT 23/M04 A2984 RMK A01 T02341039  RH  016%=      5-min Rain = 0
KME1 110614Z 28006KT 23/M04 A2984 RMK A01 T02331039  RH  016%=      5-min Rain = 0
KME1 110615Z 28006KT 23/M04 A2984 RMK A01 T02331039  RH  016%=      5-min Rain = 0
KME1 110616Z 28006KT 23/M04 A2984 RMK A01 T02321039  RH  016%=      5-min Rain = 0
KME1 110617Z 28006KT 23/M04 A2984 RMK A01 T02321039  RH  016%=      5-min Rain = 0
KME1 110618Z 28005KT 23/M04 A2984 RMK A01 T02321038  RH  016%=      5-min Rain = 0
KME1 110619Z 28006KT 23/M04 A2984 RMK A01 T02311038  RH  016%=      5-min Rain = 0
KME1 110620Z 28006KT 23/M04 A2984 RMK A01 T02301038  RH  016%=      5-min Rain = 0
KME1 110621Z 29007KT 23/M04 A2984 RMK A01 T02291038  RH  016%=      5-min Rain = 0
KME1 110622Z 30007KT 23/M04 A2984 RMK A01 T02291038  RH  017%=      5-min Rain = 0
KME1 110623Z 30006KT 23/M04 A2984 RMK A01 T02291038  RH  017%=      5-min Rain = 0
KME1 110624Z 29005KT 23/M04 A2984 RMK A01 T02291037  RH  017%=      5-min Rain = 0
KME1 110625Z 28005KT 23/M04 A2984 RMK A01 T02271037  RH  017%=      5-min Rain = 0
KME1 110626Z 28006KT 23/M04 A2984 RMK A01 T02261037  RH  017%=      5-min Rain = 0
KME1 110627Z 28006KT 23/M04 A2984 RMK A01 T02261037  RH  017%=      5-min Rain = 0
KME1 110628Z 29005KT 23/M04 A2984 RMK A01 T02251037  RH  017%=      5-min Rain = 0
KME1 110629Z 29006KT 22/M04 A2984 RMK A01 T02241037  RH  017%=      5-min Rain = 0
KME1 110630Z 29006KT 22/M04 A2984 RMK A01 T02241037  RH  017%=      5-min Rain = 0
KME1 110631Z 28006KT 22/M04 A2984 RMK A01 T02241037  RH  017%=      5-min Rain = 0
KME1 110632Z 27006KT 22/M04 A2984 RMK A01 T02231037  RH  017%=      5-min Rain = 0
KME1 110633Z 26007KT 22/M04 A2984 RMK A01 T02231036  RH  017%=      5-min Rain = 0
KME1 110634Z 27007KT 22/M04 A2984 RMK A01 T02221037  RH  017%=      5-min Rain = 0
KME1 110635Z 27007KT 22/M04 A2984 RMK A01 T02221037  RH  017%=      5-min Rain = 0
KME1 110636Z 27006KT 22/M04 A2984 RMK A01 T02231036  RH  017%=      5-min Rain = 0
KME1 110637Z 26007KT 22/M04 A2984 RMK A01 T02231036  RH  017%=      5-min Rain = 0
KME1 110638Z 26008KT 22/M04 A2984 RMK A01 T02231036  RH  017%=      5-min Rain = 0
KME1 110639Z 26007KT 22/M04 A2984 RMK A01 T02231036  RH  017%=      5-min Rain = 0
KME1 110640Z 27007KT 22/M04 A2984 RMK A01 T02231036  RH  017%=      5-min Rain = 0
KME1 110641Z 27007KT 22/M04 A2984 RMK A01 T02231036  RH  017%=      5-min Rain = 0
KME1 110642Z 27007KT 22/M04 A2984 RMK A01 T02241036  RH  017%=      5-min Rain = 0
KME1 110643Z 27007KT 22/M04 A2984 RMK A01 T02241037  RH  017%=      5-min Rain = 0
KME1 110644Z 28007KT 23/M04 A2984 RMK A01 T02251037  RH  017%=      5-min Rain = 0
KME1 110645Z 28007KT 23/M04 A2984 RMK A01 T02251037  RH  017%=      5-min Rain = 0
KME1 110646Z 28006KT 23/M04 A2984 RMK A01 T02261037  RH  017%=      5-min Rain = 0
KME1 110647Z 28006KT 23/M04 A2984 RMK A01 T02261037  RH  017%=      5-min Rain = 0
KME1 110648Z 27006KT 23/M04 A2984 RMK A01 T02251036  RH  017%=      5-min Rain = 0
KME1 110649Z 28006KT 22/M04 A2984 RMK A01 T02241036  RH  017%=      5-min Rain = 0
KME1 110650Z 27005KT 22/M04 A2984 RMK A01 T02241036  RH  017%=      5-min Rain = 0
KME1 110651Z 28005KT 22/M04 A2984 RMK A01 T02221036  RH  017%=      5-min Rain = 0
KME1 110652Z 27005KT 22/M04 A2984 RMK A01 T02221036  RH  017%=      5-min Rain = 0
KME1 110653Z 27006KT 22/M04 A2984 RMK A01 T02221036  RH  018%=      5-min Rain = 0
KME1 110654Z 28005KT 22/M04 A2984 RMK A01 T02211036  RH  018%=      5-min Rain = 0
KME1 110655Z 28006KT 22/M04 A2984 RMK A01 T02201036  RH  018%=      5-min Rain = 0
KME1 110656Z 28005KT 22/M04 A2984 RMK A01 T02201035  RH  018%=      5-min Rain = 0
KME1 110657Z 27005KT 22/M04 A2984 RMK A01 T02201035  RH  018%=      5-min Rain = 0
KME1 110658Z 27005KT 22/M04 A2984 RMK A01 T02191036  RH  018%=      5-min Rain = 0
KME1 110659Z 28005KT 22/M04 A2984 RMK A01 T02191036  RH  018%=      5-min Rain = 0
KME1 110700Z 27005KT 22/M04 A2984 RMK A01 T02181035  RH  018%=      5-min Rain = 0
KME1 110701Z 27005KT 22/M04 A2984 RMK A01 T02181035  RH  018%=      5-min Rain = 0
KME1 110702Z 27006KT 22/M04 A2984 RMK A01 T02171035  RH  018%=      5-min Rain = 0
KME1 110703Z 27005KT 22/M04 A2984 RMK A01 T02171035  RH  018%=      5-min Rain = 0
KME1 110704Z 27005KT 22/M04 A2984 RMK A01 T02171035  RH  018%=      5-min Rain = 0
KME1 110705Z 28004KT 22/M04 A2984 RMK A01 T02161035  RH  018%=      5-min Rain = 0
KME1 110706Z 28004KT 22/M04 A2984 RMK A01 T02161035  RH  018%=      5-min Rain = 0
KME1 110707Z 29004KT 22/M04 A2984 RMK A01 T02161035  RH  018%=      5-min Rain = 0
KME1 110708Z 29004KT 22/M04 A2984 RMK A01 T02151035  RH  018%=      5-min Rain = 0
KME1 110709Z 29004KT 21/M03 A2983 RMK A01 T02141034  RH  019%=      5-min Rain = 0
KME1 110710Z 28004KT 21/M04 A2983 RMK A01 T02131035  RH  019%=      5-min Rain = 0
KME1 110711Z 27004KT 21/M04 A2983 RMK A01 T02121035  RH  019%=      5-min Rain = 0
KME1 110712Z 27005KT 21/M03 A2983 RMK A01 T02111034  RH  019%=      5-min Rain = 0
KME1 110713Z 26005KT 21/M03 A2983 RMK A01 T02111033  RH  019%=      5-min Rain = 0
KME1 110714Z 26005KT 21/M03 A2984 RMK A01 T02111034  RH  019%=      5-min Rain = 0
KME1 110715Z 27006KT 21/M03 A2984 RMK A01 T02101034  RH  019%=      5-min Rain = 0
KME1 110716Z 26006KT 21/M03 A2984 RMK A01 T02111034  RH  019%=      5-min Rain = 0
KME1 110717Z 26006KT 21/M03 A2984 RMK A01 T02111034  RH  019%=      5-min Rain = 0
KME1 110718Z 25007KT 21/M03 A2984 RMK A01 T02111033  RH  019%=      5-min Rain = 0
KME1 110719Z 25007KT 21/M03 A2984 RMK A01 T02111033  RH  019%=      5-min Rain = 0
KME1 110720Z 26007KT 21/M03 A2984 RMK A01 T02111033  RH  019%=      5-min Rain = 0
KME1 110721Z 25007KT 21/M03 A2984 RMK A01 T02121033  RH  019%=      5-min Rain = 0
KME1 110722Z 26007KT 21/M03 A2984 RMK A01 T02111034  RH  019%=      5-min Rain = 0
KME1 110723Z 26007KT 21/M03 A2984 RMK A01 T02111034  RH  019%=      5-min Rain = 0
KME1 110724Z 26008KT 21/M03 A2984 RMK A01 T02111034  RH  019%=      5-min Rain = 0
KME1 110725Z 26008KT 21/M03 A2984 RMK A01 T02121034  RH  019%=      5-min Rain = 0
KME1 110726Z 26007KT 21/M03 A2984 RMK A01 T02131034  RH  019%=      5-min Rain = 0
KME1 110727Z 26008KT 21/M03 A2984 RMK A01 T02141034  RH  019%=      5-min Rain = 0
KME1 110728Z 26007KT 22/M03 A2984 RMK A01 T02151034  RH  019%=      5-min Rain = 0
KME1 110729Z 26007KT 22/M03 A2984 RMK A01 T02161034  RH  018%=      5-min Rain = 0
KME1 110730Z 26009KT 22/M03 A2984 RMK A01 T02171034  RH  018%=      5-min Rain = 0
KME1 110731Z 26008KT 22/M03 A2984 RMK A01 T02171034  RH  018%=      5-min Rain = 0
KME1 110732Z 25007KT 22/M03 A2984 RMK A01 T02181034  RH  018%=      5-min Rain = 0
KME1 110733Z 25008KT 22/M03 A2985 RMK A01 T02181034  RH  018%=      5-min Rain = 0
KME1 110734Z 26008KT 22/M03 A2985 RMK A01 T02181034  RH  018%=      5-min Rain = 0
KME1 110735Z 26008KT 22/M04 A2984 RMK A01 T02181035  RH  018%=      5-min Rain = 0
KME1 110736Z 25008KT 22/M04 A2984 RMK A01 T02201035  RH  018%=      5-min Rain = 0
KME1 110737Z 26008KT 22/M04 A2984 RMK A01 T02201035  RH  018%=      5-min Rain = 0
KME1 110738Z 25007KT 22/M04 A2985 RMK A01 T02201035  RH  018%=      5-min Rain = 0
KME1 110739Z 26008KT 22/M03 A2985 RMK A01 T02201034  RH  018%=      5-min Rain = 0
KME1 110740Z 25009KT 22/M03 A2985 RMK A01 T02201034  RH  018%=      5-min Rain = 0
KME1 110741Z 26008KT 22/M04 A2985 RMK A01 T02201035  RH  018%=      5-min Rain = 0
KME1 110742Z 27008KT 22/M04 A2985 RMK A01 T02201035  RH  018%=      5-min Rain = 0
KME1 110743Z 27007KT 22/M04 A2985 RMK A01 T02211035  RH  018%=      5-min Rain = 0
KME1 110744Z 27007KT 22/M03 A2985 RMK A01 T02221034  RH  018%=      5-min Rain = 0
KME1 110745Z 27007KT 22/M04 A2985 RMK A01 T02211035  RH  018%=      5-min Rain = 0
KME1 110746Z 27006KT 22/M03 A2985 RMK A01 T02211034  RH  018%=      5-min Rain = 0
KME1 110747Z 27006KT 22/M04 A2985 RMK A01 T02201035  RH  018%=      5-min Rain = 0
KME1 110748Z 27006KT 22/M03 A2985 RMK A01 T02201034  RH  018%=      5-min Rain = 0
KME1 110749Z 27006KT 22/M03 A2985 RMK A01 T02191034  RH  018%=      5-min Rain = 0
KME1 110750Z 28005KT 22/M03 A2985 RMK A01 T02191034  RH  018%=      5-min Rain = 0
KME1 110751Z 27005KT 22/M03 A2985 RMK A01 T02181034  RH  018%=      5-min Rain = 0
KME1 110752Z 28005KT 22/M03 A2985 RMK A01 T02171034  RH  018%=      5-min Rain = 0
KME1 110753Z 27005KT 22/M03 A2985 RMK A01 T02171034  RH  018%=      5-min Rain = 0
KME1 110754Z 27005KT 22/M03 A2985 RMK A01 T02171033  RH  018%=      5-min Rain = 0
KME1 110755Z 28005KT 22/M03 A2985 RMK A01 T02161033  RH  019%=      5-min Rain = 0
KME1 110756Z 27005KT 22/M03 A2985 RMK A01 T02151033  RH  019%=      5-min Rain = 0
KME1 110757Z 27005KT 21/M03 A2985 RMK A01 T02141033  RH  019%=      5-min Rain = 0
KME1 110758Z 27005KT 21/M03 A2985 RMK A01 T02131033  RH  019%=      5-min Rain = 0
KME1 110759Z 28005KT 21/M03 A2985 RMK A01 T02131032  RH  019%=      5-min Rain = 0
KME1 110800Z 28005KT 21/M03 A2985 RMK A01 T02131032  RH  019%=      5-min Rain = 0
KME1 110801Z 27005KT 21/M03 A2985 RMK A01 T02121033  RH  019%=      5-min Rain = 0
KME1 110802Z 28004KT 21/M03 A2985 RMK A01 T02121033  RH  019%=      5-min Rain = 0
KME1 110803Z 28004KT 21/M03 A2985 RMK A01 T02121032  RH  019%=      5-min Rain = 0
KME1 110804Z 28004KT 21/M03 A2984 RMK A01 T02111032  RH  019%=      5-min Rain = 0
KME1 110805Z 28004KT 21/M03 A2984 RMK A01 T02101031  RH  019%=      5-min Rain = 0
KME1 110806Z 28004KT 21/M03 A2984 RMK A01 T02091031  RH  020%=      5-min Rain = 0
KME1 110807Z 28004KT 21/M03 A2984 RMK A01 T02081032  RH  020%=      5-min Rain = 0
KME1 110808Z 28005KT 21/M03 A2984 RMK A01 T02071031  RH  020%=      5-min Rain = 0
KME1 110809Z 28004KT 21/M03 A2984 RMK A01 T02061031  RH  020%=      5-min Rain = 0
KME1 110810Z 28004KT 21/M03 A2984 RMK A01 T02051031  RH  020%=      5-min Rain = 0
KME1 110811Z 28004KT 20/M03 A2984 RMK A01 T02041031  RH  020%=      5-min Rain = 0
KME1 110812Z 28003KT 20/M03 A2984 RMK A01 T02031031  RH  020%=      5-min Rain = 0
KME1 110813Z 28004KT 20/M03 A2984 RMK A01 T02021031  RH  021%=      5-min Rain = 0
KME1 110814Z 29004KT 20/M03 A2984 RMK A01 T02011030  RH  021%=      5-min Rain = 0
KME1 110815Z 30005KT 20/M03 A2984 RMK A01 T02001029  RH  021%=      5-min Rain = 0
KME1 110816Z 32007KT 20/M03 A2984 RMK A01 T01981028  RH  022%=      5-min Rain = 0
KME1 110817Z 32008KT 20/M03 A2985 RMK A01 T01951027  RH  022%=      5-min Rain = 0
KME1 110818Z 31007KT 19/M03 A2984 RMK A01 T01931027  RH  022%=      5-min Rain = 0
KME1 110819Z 31006KT 19/M03 A2984 RMK A01 T01921027  RH  022%=      5-min Rain = 0
KME1 110820Z 31007KT 19/M03 A2984 RMK A01 T01921027  RH  022%=      5-min Rain = 0
KME1 110821Z 32006KT 19/M03 A2984 RMK A01 T01921027  RH  023%=      5-min Rain = 0
KME1 110822Z 31006KT 19/M03 A2984 RMK A01 T01911027  RH  023%=      5-min Rain = 0
KME1 110823Z 30006KT 19/M03 A2984 RMK A01 T01911027  RH  023%=      5-min Rain = 0
KME1 110824Z 29005KT 19/M03 A2984 RMK A01 T01901027  RH  023%=      5-min Rain = 0
KME1 110825Z 29006KT 19/M03 A2984 RMK A01 T01901028  RH  023%=      5-min Rain = 0
KME1 110826Z 29006KT 19/M03 A2984 RMK A01 T01901029  RH  022%=      5-min Rain = 0
KME1 110827Z 28006KT 19/M03 A2984 RMK A01 T01921029  RH  022%=      5-min Rain = 0
KME1 110828Z 27006KT 19/M03 A2984 RMK A01 T01931030  RH  022%=      5-min Rain = 0
KME1 110829Z 27006KT 20/M03 A2984 RMK A01 T01951030  RH  022%=      5-min Rain = 0
KME1 110830Z 27007KT 20/M03 A2984 RMK A01 T01971030  RH  021%=      5-min Rain = 0
KME1 110831Z 27007KT 20/M03 A2984 RMK A01 T01981030  RH  021%=      5-min Rain = 0
KME1 110832Z 27006KT 20/M03 A2984 RMK A01 T01991031  RH  021%=      5-min Rain = 0
KME1 110833Z 27006KT 20/M03 A2984 RMK A01 T02011030  RH  021%=      5-min Rain = 0
KME1 110834Z 27007KT 20/M03 A2984 RMK A01 T02021030  RH  021%=      5-min Rain = 0
KME1 110835Z 27007KT 20/M03 A2984 RMK A01 T02021030  RH  021%=      5-min Rain = 0
KME1 110836Z 27007KT 20/M03 A2984 RMK A01 T02021031  RH  021%=      5-min Rain = 0
KME1 110837Z 27007KT 20/M03 A2984 RMK A01 T02021031  RH  021%=      5-min Rain = 0
KME1 110838Z 27008KT 20/M03 A2984 RMK A01 T02031031  RH  020%=      5-min Rain = 0
KME1 110839Z 27008KT 20/M03 A2984 RMK A01 T02031031  RH  020%=      5-min Rain = 0
KME1 110840Z 26008KT 20/M03 A2984 RMK A01 T02031031  RH  020%=      5-min Rain = 0
KME1 110841Z 27008KT 20/M03 A2984 RMK A01 T02031031  RH  020%=      5-min Rain = 0
KME1 110842Z 26009KT 20/M03 A2984 RMK A01 T02031032  RH  020%=      5-min Rain = 0
KME1 110843Z 26009KT 20/M03 A2984 RMK A01 T02041032  RH  020%=      5-min Rain = 0
KME1 110844Z 26008KT 20/M03 A2984 RMK A01 T02041032  RH  020%=      5-min Rain = 0
KME1 110845Z 26009KT 21/M03 A2984 RMK A01 T02051032  RH  020%=      5-min Rain = 0
KME1 110846Z 26008KT 21/M03 A2984 RMK A01 T02051031  RH  020%=      5-min Rain = 0
KME1 110847Z 26009KT 21/M03 A2984 RMK A01 T02051031  RH  020%=      5-min Rain = 0
KME1 110848Z 27009KT 21/M03 A2984 RMK A01 T02051031  RH  020%=      5-min Rain = 0
KME1 110849Z 27009KT 20/M03 A2984 RMK A01 T02041031  RH  020%=      5-min Rain = 0
KME1 110850Z 27009KT 20/M03 A2984 RMK A01 T02041031  RH  020%=      5-min Rain = 0
KME1 110851Z 27009KT 20/M03 A2984 RMK A01 T02031031  RH  020%=      5-min Rain = 0
KME1 110852Z 27008G13KT 20/M03 A2984 RMK A01 T02031031  RH  020%=      5-min Rain = 0
KME1 110853Z 27009KT 20/M03 A2984 RMK A01 T02031031  RH  021%=      5-min Rain = 0
KME1 110854Z 27009KT 20/M03 A2984 RMK A01 T02031030  RH  021%=      5-min Rain = 0
KME1 110855Z 26009KT 20/M03 A2984 RMK A01 T02031030  RH  021%=      5-min Rain = 0
KME1 110856Z 27009KT 20/M03 A2984 RMK A01 T02031030  RH  021%=      5-min Rain = 0
KME1 110857Z 27009KT 20/M03 A2984 RMK A01 T02031031  RH  020%=      5-min Rain = 0
KME1 110858Z 27008KT 20/M03 A2984 RMK A01 T02041031  RH  020%=      5-min Rain = 0
KME1 110859Z 26010KT 20/M03 A2984 RMK A01 T02041031  RH  020%=      5-min Rain = 0
KME1 110900Z 26009KT 21/M03 A2984 RMK A01 T02051031  RH  020%=      5-min Rain = 0
KME1 110901Z 27009KT 21/M03 A2984 RMK A01 T02061032  RH  020%=      5-min Rain = 0
KME1 110902Z 27009KT 21/M03 A2984 RMK A01 T02071031  RH  020%=      5-min Rain = 0
KME1 110903Z 27009KT 21/M03 A2984 RMK A01 T02081031  RH  020%=      5-min Rain = 0
KME1 110904Z 26010KT 21/M03 A2984 RMK A01 T02081032  RH  020%=      5-min Rain = 0
KME1 110905Z 27010KT 21/M03 A2984 RMK A01 T02091032  RH  020%=      5-min Rain = 0
KME1 110906Z 27009KT 21/M03 A2984 RMK A01 T02101032  RH  019%=      5-min Rain = 0
KME1 110907Z 27008KT 21/M03 A2984 RMK A01 T02101032  RH  019%=      5-min Rain = 0
KME1 110908Z 27006KT 21/M03 A2984 RMK A01 T02101032  RH  019%=      5-min Rain = 0
KME1 110909Z 27007KT 21/M03 A2984 RMK A01 T02101032  RH  019%=      5-min Rain = 0
KME1 110910Z 27007KT 21/M03 A2984 RMK A01 T02101032  RH  019%=      5-min Rain = 0
KME1 110911Z 26009KT 21/M03 A2984 RMK A01 T02101032  RH  019%=      5-min Rain = 0
KME1 110912Z 26009KT 21/M03 A2984 RMK A01 T02101033  RH  019%=      5-min Rain = 0
KME1 110913Z 26007KT 21/M03 A2984 RMK A01 T02101033  RH  019%=      5-min Rain = 0
KME1 110914Z 26008KT 21/M03 A2983 RMK A01 T02101033  RH  019%=      5-min Rain = 0
KME1 110915Z 26008KT 21/M03 A2983 RMK A01 T02101033  RH  019%=      5-min Rain = 0
KME1 110916Z 26008KT 21/M03 A2983 RMK A01 T02091033  RH  019%=      5-min Rain = 0
KME1 110917Z 26008KT 21/M03 A2983 RMK A01 T02091033  RH  019%=      5-min Rain = 0
KME1 110918Z 26009KT 21/M03 A2983 RMK A01 T02091033  RH  019%=      5-min Rain = 0
KME1 110919Z 26007KT 21/M03 A2983 RMK A01 T02091034  RH  019%=      5-min Rain = 0
KME1 110920Z 26008KT 21/M03 A2983 RMK A01 T02091033  RH  019%=      5-min Rain = 0
KME1 110921Z 26008KT 21/M03 A2983 RMK A01 T02091033  RH  019%=      5-min Rain = 0
KME1 110922Z 27008KT 21/M03 A2983 RMK A01 T02091033  RH  019%=      5-min Rain = 0
KME1 110923Z 26008KT 21/M03 A2983 RMK A01 T02091033  RH  019%=      5-min Rain = 0
KME1 110924Z 26007KT 21/M03 A2983 RMK A01 T02091033  RH  019%=      5-min Rain = 0
KME1 110925Z 26008KT 21/M03 A2983 RMK A01 T02091033  RH  019%=      5-min Rain = 0
KME1 110926Z 26007KT 21/M03 A2983 RMK A01 T02091033  RH  019%=      5-min Rain = 0
KME1 110927Z 26008KT 21/M03 A2983 RMK A01 T02091032  RH  020%=      5-min Rain = 0
KME1 110928Z 26007KT 21/M03 A2983 RMK A01 T02091032  RH  020%=      5-min Rain = 0
KME1 110929Z 26008KT 21/M03 A2983 RMK A01 T02081032  RH  020%=      5-min Rain = 0
KME1 110930Z 26009KT 21/M03 A2983 RMK A01 T02081032  RH  020%=      5-min Rain = 0
KME1 110931Z 26008KT 21/M03 A2983 RMK A01 T02081033  RH  020%=      5-min Rain = 0
KME1 110932Z 26008KT 21/M03 A2983 RMK A01 T02071032  RH  020%=      5-min Rain = 0
KME1 110933Z 26008KT 21/M03 A2983 RMK A01 T02071032  RH  020%=      5-min Rain = 0
KME1 110934Z 26007KT 21/M03 A2983 RMK A01 T02071032  RH  020%=      5-min Rain = 0
KME1 110935Z 26008KT 21/M03 A2983 RMK A01 T02071032  RH  020%=      5-min Rain = 0
KME1 110936Z 26009KT 21/M03 A2983 RMK A01 T02071032  RH  020%=      5-min Rain = 0
KME1 110937Z 26008KT 21/M03 A2984 RMK A01 T02071032  RH  020%=      5-min Rain = 0
KME1 110938Z 27008KT 21/M03 A2984 RMK A01 T02081032  RH  020%=      5-min Rain = 0
KME1 110939Z 27008KT 21/M03 A2984 RMK A01 T02081032  RH  020%=      5-min Rain = 0
KME1 110940Z 28009KT 21/M03 A2985 RMK A01 T02081032  RH  020%=      5-min Rain = 0
KME1 110941Z 28009KT 21/M03 A2985 RMK A01 T02081032  RH  020%=      5-min Rain = 0
KME1 110942Z 28008KT 21/M03 A2985 RMK A01 T02081032  RH  020%=      5-min Rain = 0
KME1 110943Z 29008KT 21/M03 A2985 RMK A01 T02081031  RH  020%=      5-min Rain = 0
KME1 110944Z 29007KT 21/M03 A2986 RMK A01 T02071031  RH  020%=      5-min Rain = 0
KME1 110945Z 29009KT 21/M03 A2986 RMK A01 T02061030  RH  020%=      5-min Rain = 0
KME1 110946Z 29012G19KT 21/M03 A2986 RMK A01 T02051031  RH  020%=      5-min Rain = 0
KME1 110947Z 30012G18KT 21/M03 A2986 RMK A01 T02071033  RH  020%=      5-min Rain = 0
KME1 110948Z 30012G19KT 21/M03 A2986 RMK A01 T02091032  RH  020%=      5-min Rain = 0
KME1 110949Z 32015KT 21/M03 A2986 RMK A01 T02091033  RH  019%=      5-min Rain = 0
KME1 110950Z 33012KT 21/M03 A2986 RMK A01 T02091034  RH  019%=      5-min Rain = 0
KME1 110951Z 33011KT 21/M03 A2986 RMK A01 T02091033  RH  019%=      5-min Rain = 0
KME1 110952Z 34011KT 21/M03 A2986 RMK A01 T02071033  RH  020%=      5-min Rain = 0
KME1 110953Z 35008KT 21/M03 A2986 RMK A01 T02051033  RH  020%=      5-min Rain = 0
KME1 110954Z 34011KT 20/M03 A2986 RMK A01 T02031032  RH  020%=      5-min Rain = 0
KME1 110955Z 33010G15KT 20/M03 A2986 RMK A01 T02001032  RH  021%=      5-min Rain = 0
KME1 110956Z 32011KT 20/M03 A2987 RMK A01 T01991032  RH  021%=      5-min Rain = 0
KME1 110957Z 33010KT 20/M03 A2987 RMK A01 T01971032  RH  021%=      5-min Rain = 0
KME1 110958Z 33011KT 20/M03 A2987 RMK A01 T01961031  RH  021%=      5-min Rain = 0
KME1 110959Z 34009KT 20/M03 A2987 RMK A01 T01951032  RH  021%=      5-min Rain = 0
KME1 111000Z 34011KT 19/M03 A2987 RMK A01 T01941032  RH  021%=      5-min Rain = 0
KME1 111001Z 34012G18KT 19/M04 A2987 RMK A01 T01931035  RH  021%=      5-min Rain = 0
KME1 111002Z 35014KT 19/M04 A2987 RMK A01 T01941039  RH  020%=      5-min Rain = 0
KME1 111003Z 35013KT 20/M04 A2987 RMK A01 T01951042  RH  020%=      5-min Rain = 0
KME1 111004Z 35012KT 20/M04 A2987 RMK A01 T01951043  RH  020%=      5-min Rain = 0
KME1 111005Z 35016KT 20/M04 A2987 RMK A01 T01951042  RH  020%=      5-min Rain = 0
KME1 111006Z 35013KT 20/M04 A2988 RMK A01 T01951038  RH  020%=      5-min Rain = 0
KME1 111007Z 35018KT 19/M03 A2988 RMK A01 T01941034  RH  021%=      5-min Rain = 0
KME1 111008Z 35017G23KT 19/M03 A2988 RMK A01 T01931028  RH  022%=      5-min Rain = 0
KME1 111009Z 00016KT 19/M02 A2988 RMK A01 T01921023  RH  023%=      5-min Rain = 0
KME1 111010Z 01014KT 19/M02 A2989 RMK A01 T01911020  RH  024%=      5-min Rain = 0
KME1 111011Z 01013KT 19/M02 A2989 RMK A01 T01901016  RH  025%=      5-min Rain = 0
KME1 111012Z 01014G22KT 19/M01 A2989 RMK A01 T01891011  RH  026%=      5-min Rain = 0
KME1 111013Z 02019G24KT 19/00 A2989 RMK A01 T01870002  RH  029%=      5-min Rain = 0
KME1 111014Z 02018G23KT 19/02 A2989 RMK A01 T01860017  RH  032%=      5-min Rain = 0
KME1 111015Z 02017G24KT 19/03 A2989 RMK A01 T01850026  RH  035%=      5-min Rain = 0
KME1 111016Z 02021KT 18/03 A2989 RMK A01 T01840034  RH  037%=      5-min Rain = 0
KME1 111017Z 02023KT 18/04 A2989 RMK A01 T01830042  RH  039%=      5-min Rain = 0
KME1 111018Z 02022G27KT 18/05 A299 RMK A01 T01810045  RH  041%=      5-min Rain = 0
KME1 111019Z 02019G24KT 18/05 A299 RMK A01 T01790047  RH  042%=      5-min Rain = 0
KME1 111020Z 01019G24KT 18/05 A299 RMK A01 T01780049  RH  042%=      5-min Rain = 0
KME1 111021Z 02019KT 18/05 A299 RMK A01 T01770049  RH  043%=      5-min Rain = 0
KME1 111022Z 02017KT 18/05 A299 RMK A01 T01770049  RH  043%=      5-min Rain = 0
KME1 111023Z 02016KT 18/05 A299 RMK A01 T01760049  RH  043%=      5-min Rain = 0
KME1 111024Z 02017KT 18/05 A299 RMK A01 T01750050  RH  044%=      5-min Rain = 0
KME1 111025Z 03019G26KT 18/05 A299 RMK A01 T01750053  RH  044%=      5-min Rain = 0
KME1 111026Z 02018KT 18/06 A299 RMK A01 T01750059  RH  046%=      5-min Rain = 0
KME1 111027Z 03019G24KT 17/06 A2991 RMK A01 T01740063  RH  048%=      5-min Rain = 0
KME1 111028Z 03021G28KT 17/07 A2991 RMK A01 T01740067  RH  049%=      5-min Rain = 0
KME1 111029Z 04019G24KT 17/07 A2991 RMK A01 T01740068  RH  050%=      5-min Rain = 0
KME1 111030Z 04021KT 17/07 A2991 RMK A01 T01730072  RH  051%=      5-min Rain = 0
KME1 111031Z 04020KT 17/08 A2991 RMK A01 T01720075  RH  053%=      5-min Rain = 0
KME1 111032Z 03018G23KT 17/08 A2991 RMK A01 T01720077  RH  054%=      5-min Rain = 0
KME1 111033Z 03016G21KT 17/08 A2991 RMK A01 T01710077  RH  054%=      5-min Rain = 0
KME1 111034Z 03016KT 17/08 A2991 RMK A01 T01700078  RH  054%=      5-min Rain = 0
KME1 111035Z 03013KT 17/08 A2991 RMK A01 T01700078  RH  055%=      5-min Rain = 0
KME1 111036Z 03020KT 17/08 A2991 RMK A01 T01690079  RH  055%=      5-min Rain = 0
KME1 111037Z 03015KT 17/08 A2991 RMK A01 T01690080  RH  056%=      5-min Rain = 0
KME1 111038Z 03017G22KT 17/08 A2992 RMK A01 T01690080  RH  056%=      5-min Rain = 0
KME1 111039Z 03019KT 17/08 A2992 RMK A01 T01680081  RH  056%=      5-min Rain = 0
KME1 111040Z 02017KT 17/08 A2992 RMK A01 T01680081  RH  056%=      5-min Rain = 0
KME1 111041Z 02016KT 17/08 A2992 RMK A01 T01680082  RH  057%=      5-min Rain = 0
KME1 111042Z 03015G21KT 17/08 A2992 RMK A01 T01680082  RH  057%=      5-min Rain = 0
KME1 111043Z 03018KT 17/08 A2992 RMK A01 T01680083  RH  057%=      5-min Rain = 0
KME1 111044Z 02018KT 17/08 A2992 RMK A01 T01680084  RH  057%=      5-min Rain = 0
KME1 111045Z 03015KT 17/08 A2992 RMK A01 T01680084  RH  058%=      5-min Rain = 0
KME1 111046Z 03015KT 17/08 A2992 RMK A01 T01670084  RH  058%=      5-min Rain = 0
KME1 111047Z 03014G19KT 17/08 A2992 RMK A01 T01670084  RH  058%=      5-min Rain = 0
KME1 111048Z 03017G22KT 17/09 A2992 RMK A01 T01670085  RH  058%=      5-min Rain = 0
KME1 111049Z 02019G25KT 17/09 A2993 RMK A01 T01670086  RH  059%=      5-min Rain = 0
KME1 111050Z 03020G27KT 17/09 A2993 RMK A01 T01660087  RH  059%=      5-min Rain = 0
KME1 111051Z 02021KT 17/09 A2993 RMK A01 T01660088  RH  060%=      5-min Rain = 0
KME1 111052Z 03015KT 17/09 A2993 RMK A01 T01660088  RH  060%=      5-min Rain = 0
KME1 111053Z 03019G24KT 17/09 A2994 RMK A01 T01650088  RH  060%=      5-min Rain = 0
KME1 111054Z 02017G24KT 17/09 A2993 RMK A01 T01650088  RH  061%=      5-min Rain = 0
KME1 111055Z 03021KT 17/09 A2994 RMK A01 T01650089  RH  061%=      5-min Rain = 0
KME1 111056Z 03020G25KT 16/09 A2994 RMK A01 T01640090  RH  061%=      5-min Rain = 0
KME1 111057Z 03023G28KT 16/09 A2994 RMK A01 T01640090  RH  062%=      5-min Rain = 0
KME1 111058Z 03021KT 16/09 A2994 RMK A01 T01630090  RH  062%=      5-min Rain = 0
KME1 111059Z 04020KT 16/09 A2994 RMK A01 T01630091  RH  062%=      5-min Rain = 0
KME1 111100Z 04021G26KT 16/09 A2994 RMK A01 T01630091  RH  062%=      5-min Rain = 0
KME1 111101Z 04018KT 16/09 A2993 RMK A01 T01620091  RH  063%=      5-min Rain = 0
KME1 111102Z 04019G24KT 16/09 A2994 RMK A01 T01620091  RH  063%=      5-min Rain = 0
KME1 111103Z 03017G24KT 16/09 A2994 RMK A01 T01610091  RH  063%=      5-min Rain = 0
KME1 111104Z 03015G20KT 16/09 A2994 RMK A01 T01600091  RH  063%=      5-min Rain = 0
KME1 111105Z 03014KT 16/09 A2994 RMK A01 T01600091  RH  063%=      5-min Rain = 0
KME1 111106Z 03014G19KT 16/09 A2994 RMK A01 T01590091  RH  064%=      5-min Rain = 0
KME1 111107Z 03014KT 16/09 A2994 RMK A01 T01590091  RH  064%=      5-min Rain = 0
KME1 111108Z 03015G21KT 16/09 A2994 RMK A01 T01590091  RH  064%=      5-min Rain = 0
KME1 111109Z 03016KT 16/09 A2995 RMK A01 T01590092  RH  064%=      5-min Rain = 0
KME1 111110Z 03014KT 16/09 A2995 RMK A01 T01580091  RH  064%=      5-min Rain = 0
KME1 111111Z 02013KT 16/09 A2994 RMK A01 T01580091  RH  064%=      5-min Rain = 0
KME1 111112Z 02016G21KT 16/09 A2995 RMK A01 T01570091  RH  065%=      5-min Rain = 0
KME1 111113Z 02018KT 16/09 A2995 RMK A01 T01570092  RH  065%=      5-min Rain = 0
KME1 111114Z 03018G23KT 16/09 A2995 RMK A01 T01570092  RH  065%=      5-min Rain = 0
KME1 111115Z 03019KT 16/09 A2995 RMK A01 T01570093  RH  066%=      5-min Rain = 0
KME1 111116Z 03014G19KT 16/09 A2995 RMK A01 T01560093  RH  066%=      5-min Rain = 0
KME1 111117Z 04016G22KT 16/09 A2995 RMK A01 T01560092  RH  066%=      5-min Rain = 0
KME1 111118Z 04017KT 16/09 A2995 RMK A01 T01550093  RH  066%=      5-min Rain = 0
KME1 111119Z 03018KT 16/09 A2995 RMK A01 T01550093  RH  066%=      5-min Rain = 0
KME1 111120Z 03019KT 16/09 A2996 RMK A01 T01550093  RH  067%=      5-min Rain = 0
KME1 111121Z 03020G25KT 16/09 A2996 RMK A01 T01550093  RH  067%=      5-min Rain = 0
KME1 111122Z 03018KT 16/09 A2996 RMK A01 T01550093  RH  067%=      5-min Rain = 0
KME1 111123Z 03017KT 15/09 A2996 RMK A01 T01540093  RH  067%=      5-min Rain = 0
KME1 111124Z 03016KT 15/09 A2996 RMK A01 T01540093  RH  067%=      5-min Rain = 0
KME1 111125Z 03014KT 15/09 A2997 RMK A01 T01540093  RH  067%=      5-min Rain = 0
KME1 111126Z 02014KT 15/09 A2997 RMK A01 T01530092  RH  067%=      5-min Rain = 0
KME1 111127Z 02017KT 15/09 A2997 RMK A01 T01520092  RH  067%=      5-min Rain = 0
KME1 111128Z 03016KT 15/09 A2997 RMK A01 T01520092  RH  067%=      5-min Rain = 0
KME1 111129Z 03016KT 15/09 A2997 RMK A01 T01520091  RH  067%=      5-min Rain = 0
KME1 111130Z 02013KT 15/09 A2997 RMK A01 T01520091  RH  067%=      5-min Rain = 0
KME1 111131Z 01016G22KT 15/09 A2997 RMK A01 T01520091  RH  067%=      5-min Rain = 0
KME1 111132Z 02013KT 15/09 A2997 RMK A01 T01520091  RH  067%=      5-min Rain = 0
KME1 111133Z 03012KT 15/09 A2997 RMK A01 T01510091  RH  067%=      5-min Rain = 0
KME1 111134Z 02014KT 15/09 A2997 RMK A01 T01510090  RH  067%=      5-min Rain = 0
KME1 111135Z 02012KT 15/09 A2997 RMK A01 T01500090  RH  067%=      5-min Rain = 0
KME1 111136Z 03011KT 15/09 A2997 RMK A01 T01500090  RH  067%=      5-min Rain = 0
KME1 111137Z 03010KT 15/09 A2997 RMK A01 T01500090  RH  067%=      5-min Rain = 0
KME1 111138Z 03013KT 15/09 A2997 RMK A01 T01490089  RH  067%=      5-min Rain = 0
KME1 111139Z 03011KT 15/09 A2997 RMK A01 T01480089  RH  067%=      5-min Rain = 0
KME1 111140Z 02013KT 15/09 A2997 RMK A01 T01480089  RH  067%=      5-min Rain = 0
KME1 111141Z 03013KT 15/09 A2998 RMK A01 T01480088  RH  067%=      5-min Rain = 0
KME1 111142Z 03011KT 15/09 A2998 RMK A01 T01480088  RH  067%=      5-min Rain = 0
KME1 111143Z 03011KT 15/09 A2998 RMK A01 T01480088  RH  067%=      5-min Rain = 0
KME1 111144Z 03010KT 15/09 A2998 RMK A01 T01470088  RH  067%=      5-min Rain = 0
KME1 111145Z 02013KT 15/09 A2998 RMK A01 T01470087  RH  067%=      5-min Rain = 0
KME1 111146Z 03013KT 15/09 A2999 RMK A01 T01470086  RH  067%=      5-min Rain = 0
KME1 111147Z 03014KT 15/08 A2999 RMK A01 T01470084  RH  066%=      5-min Rain = 0
KME1 111148Z 03012KT 15/08 A2999 RMK A01 T01470084  RH  066%=      5-min Rain = 0
KME1 111149Z 03011KT 15/08 A2999 RMK A01 T01470084  RH  066%=      5-min Rain = 0
KME1 111150Z 04010KT 15/08 A2999 RMK A01 T01460084  RH  066%=      5-min Rain = 0
KME1 111151Z 04011KT 15/08 A2999 RMK A01 T01460083  RH  066%=      5-min Rain = 0
KME1 111152Z 03009KT 15/08 A2999 RMK A01 T01460082  RH  066%=      5-min Rain = 0
KME1 111153Z 04012KT 15/08 A2999 RMK A01 T01450079  RH  065%=      5-min Rain = 0
KME1 111154Z 02011G17KT 15/08 A2999 RMK A01 T01450076  RH  063%=      5-min Rain = 0
KME1 111155Z 03016G23KT 15/07 A2999 RMK A01 T01450071  RH  061%=      5-min Rain = 0
KME1 111156Z 04012KT 15/07 A30 RMK A01 T01450067  RH  059%=      5-min Rain = 0
KME1 111157Z 03012KT 15/06 A30 RMK A01 T01450063  RH  058%=      5-min Rain = 0
KME1 111158Z 04013KT 15/06 A30 RMK A01 T01460060  RH  056%=      5-min Rain = 0
KME1 111159Z 04010G15KT 15/06 A30 RMK A01 T01450056  RH  055%=      5-min Rain = 0
KME1 111200Z 03013KT 14/05 A30 RMK A01 T01440054  RH  054%=      5-min Rain = 0
KME1 111201Z 03011G16KT 14/05 A30 RMK A01 T01440051  RH  054%=      5-min Rain = 0
KME1 111202Z 03011KT 14/05 A30 RMK A01 T01440050  RH  053%=      5-min Rain = 0
KME1 111203Z 03011KT 14/05 A3001 RMK A01 T01430048  RH  053%=      5-min Rain = 0
KME1 111204Z 03010KT 14/05 A3001 RMK A01 T01420047  RH  053%=      5-min Rain = 0
KME1 111205Z 02009KT 14/05 A3001 RMK A01 T01420046  RH  052%=      5-min Rain = 0
KME1 111206Z 02008KT 14/05 A3001 RMK A01 T01410046  RH  053%=      5-min Rain = 0
KME1 111207Z 02011KT 14/05 A3001 RMK A01 T01400046  RH  053%=      5-min Rain = 0
KME1 111208Z 01015G23KT 14/05 A3001 RMK A01 T01390048  RH  054%=      5-min Rain = 0
KME1 111209Z 02017G23KT 14/05 A3001 RMK A01 T01400048  RH  054%=      5-min Rain = 0
KME1 111210Z 03019G24KT 14/04 A3001 RMK A01 T01420044  RH  052%=      5-min Rain = 0
KME1 111211Z 03017G22KT 14/04 A3002 RMK A01 T01420042  RH  051%=      5-min Rain = 0
KME1 111212Z 02013G18KT 14/04 A3002 RMK A01 T01420039  RH  050%=      5-min Rain = 0
KME1 111213Z 03014KT 14/04 A3002 RMK A01 T01410038  RH  050%=      5-min Rain = 0
KME1 111214Z 03017KT 14/04 A3002 RMK A01 T01410036  RH  049%=      5-min Rain = 0
KME1 111215Z 03017G22KT 14/04 A3002 RMK A01 T01410035  RH  049%=      5-min Rain = 0
KME1 111216Z 03016KT 14/03 A3002 RMK A01 T01400034  RH  049%=      5-min Rain = 0
KME1 111217Z 03015KT 14/03 A3002 RMK A01 T01400034  RH  049%=      5-min Rain = 0
KME1 111218Z 03015KT 14/03 A3002 RMK A01 T01400033  RH  049%=      5-min Rain = 0
KME1 111219Z 03014G19KT 14/03 A3002 RMK A01 T01400033  RH  049%=      5-min Rain = 0
KME1 111220Z 03013KT 14/03 A3002 RMK A01 T01390033  RH  049%=      5-min Rain = 0
KME1 111221Z 03014KT 14/03 A3002 RMK A01 T01380032  RH  049%=      5-min Rain = 0
KME1 111222Z 03011KT 14/03 A3002 RMK A01 T01380032  RH  049%=      5-min Rain = 0
KME1 111223Z 03010G15KT 14/03 A3002 RMK A01 T01370032  RH  049%=      5-min Rain = 0
KME1 111224Z 03012G17KT 14/03 A3002 RMK A01 T01370032  RH  049%=      5-min Rain = 0
KME1 111225Z 03011KT 14/03 A3003 RMK A01 T01370032  RH  049%=      5-min Rain = 0
KME1 111226Z 03010G15KT 14/03 A3003 RMK A01 T01360032  RH  049%=      5-min Rain = 0
KME1 111227Z 02013KT 14/03 A3003 RMK A01 T01360032  RH  049%=      5-min Rain = 0
KME1 111228Z 01012KT 14/03 A3003 RMK A01 T01360032  RH  049%=      5-min Rain = 0
KME1 111229Z 02011KT 14/03 A3003 RMK A01 T01360033  RH  050%=      5-min Rain = 0
KME1 111230Z 02012KT 14/03 A3003 RMK A01 T01360032  RH  050%=      5-min Rain = 0
KME1 111231Z 02011KT 14/03 A3003 RMK A01 T01360032  RH  050%=      5-min Rain = 0
KME1 111232Z 02011KT 14/03 A3003 RMK A01 T01360032  RH  050%=      5-min Rain = 0
KME1 111233Z 02009KT 14/03 A3004 RMK A01 T01360033  RH  050%=      5-min Rain = 0
KME1 111234Z 01009KT 14/03 A3004 RMK A01 T01350033  RH  050%=      5-min Rain = 0
KME1 111235Z 01008KT 14/03 A3004 RMK A01 T01350033  RH  050%=      5-min Rain = 0
KME1 111236Z 02010KT 13/03 A3004 RMK A01 T01340033  RH  050%=      5-min Rain = 0
KME1 111237Z 02008KT 13/03 A3004 RMK A01 T01330033  RH  051%=      5-min Rain = 0
KME1 111238Z 01009KT 13/03 A3004 RMK A01 T01330032  RH  051%=      5-min Rain = 0
KME1 111239Z 01013KT 13/03 A3004 RMK A01 T01330032  RH  051%=      5-min Rain = 0
KME1 111240Z 01013KT 13/03 A3004 RMK A01 T01330031  RH  050%=      5-min Rain = 0
KME1 111241Z 02013KT 13/03 A3004 RMK A01 T01330031  RH  050%=      5-min Rain = 0
KME1 111242Z 02012KT 13/03 A3005 RMK A01 T01330030  RH  050%=      5-min Rain = 0
KME1 111243Z 02011KT 13/03 A3005 RMK A01 T01330030  RH  050%=      5-min Rain = 0
KME1 111244Z 02009KT 13/03 A3005 RMK A01 T01320030  RH  050%=      5-min Rain = 0
KME1 111245Z 02008KT 13/03 A3005 RMK A01 T01310029  RH  050%=      5-min Rain = 0
KME1 111246Z 02009KT 13/03 A3005 RMK A01 T01310028  RH  050%=      5-min Rain = 0
KME1 111247Z 01009KT 13/03 A3005 RMK A01 T01300028  RH  050%=      5-min Rain = 0
KME1 111248Z 01011KT 13/03 A3005 RMK A01 T01300028  RH  050%=      5-min Rain = 0
KME1 111249Z 01011KT 13/03 A3005 RMK A01 T01290026  RH  050%=      5-min Rain = 0
KME1 111250Z 01010KT 13/03 A3005 RMK A01 T01290026  RH  049%=      5-min Rain = 0
KME1 111251Z 01010KT 13/03 A3006 RMK A01 T01290026  RH  049%=      5-min Rain = 0
KME1 111252Z 01011KT 13/03 A3006 RMK A01 T01290026  RH  049%=      5-min Rain = 0
KME1 111253Z 01010KT 13/03 A3006 RMK A01 T01290026  RH  049%=      5-min Rain = 0
KME1 111254Z 01011KT 13/03 A3006 RMK A01 T01290025  RH  049%=      5-min Rain = 0
KME1 111255Z 01014KT 13/03 A3006 RMK A01 T01290025  RH  049%=      5-min Rain = 0
KME1 111256Z 01014KT 13/03 A3006 RMK A01 T01280025  RH  049%=      5-min Rain = 0
KME1 111257Z 01015KT 13/03 A3006 RMK A01 T01290025  RH  049%=      5-min Rain = 0
KME1 111258Z 02014G19KT 13/03 A3006 RMK A01 T01290025  RH  049%=      5-min Rain = 0
KME1 111259Z 02011KT 13/03 A3007 RMK A01 T01290025  RH  049%=      5-min Rain = 0
KME1 111300Z 02015G20KT 13/03 A3007 RMK A01 T01290026  RH  049%=      5-min Rain = 0
KME1 111301Z 02014G19KT 13/03 A3007 RMK A01 T01290025  RH  049%=      5-min Rain = 0
KME1 111302Z 02014KT 13/03 A3007 RMK A01 T01290025  RH  049%=      5-min Rain = 0
KME1 111303Z 02012KT 13/03 A3007 RMK A01 T01290025  RH  049%=      5-min Rain = 0
KME1 111304Z 02012KT 13/03 A3007 RMK A01 T01290025  RH  049%=      5-min Rain = 0
KME1 111305Z 02012KT 13/03 A3008 RMK A01 T01290025  RH  049%=      5-min Rain = 0
KME1 111306Z 02011KT 13/03 A3008 RMK A01 T01290025  RH  049%=      5-min Rain = 0
KME1 111307Z 03010KT 13/03 A3008 RMK A01 T01290025  RH  049%=      5-min Rain = 0
KME1 111308Z 02012KT 13/02 A3008 RMK A01 T01290024  RH  049%=      5-min Rain = 0
KME1 111309Z 01013KT 13/02 A3008 RMK A01 T01290024  RH  049%=      5-min Rain = 0
KME1 111310Z 02013KT 13/02 A3008 RMK A01 T01280023  RH  049%=      5-min Rain = 0
KME1 111311Z 02014KT 13/02 A3008 RMK A01 T01280022  RH  048%=      5-min Rain = 0
KME1 111312Z 02015KT 13/02 A3008 RMK A01 T01290021  RH  048%=      5-min Rain = 0
KME1 111313Z 02014KT 13/02 A3008 RMK A01 T01290021  RH  048%=      5-min Rain = 0
KME1 111314Z 03016KT 13/02 A3008 RMK A01 T01290020  RH  047%=      5-min Rain = 0
KME1 111315Z 03015KT 13/02 A3008 RMK A01 T01290020  RH  047%=      5-min Rain = 0
KME1 111316Z 02011KT 13/02 A3008 RMK A01 T01290019  RH  047%=      5-min Rain = 0
KME1 111317Z 03011KT 13/02 A3008 RMK A01 T01290020  RH  047%=      5-min Rain = 0
KME1 111318Z 02013KT 13/02 A3008 RMK A01 T01290019  RH  047%=      5-min Rain = 0
KME1 111319Z 03012KT 13/02 A3008 RMK A01 T01280018  RH  047%=      5-min Rain = 0
KME1 111320Z 03011KT 13/02 A3008 RMK A01 T01290018  RH  047%=      5-min Rain = 0
KME1 111321Z 02015G20KT 13/02 A3008 RMK A01 T01290018  RH  047%=      5-min Rain = 0
KME1 111322Z 02014KT 13/02 A3008 RMK A01 T01290017  RH  046%=      5-min Rain = 0
KME1 111323Z 02014KT 13/02 A3008 RMK A01 T01290016  RH  046%=      5-min Rain = 0
KME1 111324Z 03012KT 13/02 A3009 RMK A01 T01290016  RH  046%=      5-min Rain = 0
KME1 111325Z 03013KT 13/02 A3009 RMK A01 T01290015  RH  046%=      5-min Rain = 0
KME1 111326Z 02014KT 13/02 A3009 RMK A01 T01280015  RH  046%=      5-min Rain = 0
KME1 111327Z 02014KT 13/01 A3009 RMK A01 T01290014  RH  046%=      5-min Rain = 0
KME1 111328Z 03015KT 13/01 A3009 RMK A01 T01290013  RH  045%=      5-min Rain = 0
KME1 111329Z 02015KT 13/01 A3009 RMK A01 T01290013  RH  045%=      5-min Rain = 0
KME1 111330Z 01013KT 13/01 A3009 RMK A01 T01290013  RH  045%=      5-min Rain = 0
KME1 111331Z 02014KT 13/01 A3009 RMK A01 T01290012  RH  045%=      5-min Rain = 0
KME1 111332Z 02013KT 13/01 A3009 RMK A01 T01290012  RH  045%=      5-min Rain = 0
KME1 111333Z 02014KT 13/01 A3009 RMK A01 T01290012  RH  045%=      5-min Rain = 0
KME1 111334Z 02014KT 13/01 A301 RMK A01 T01290011  RH  045%=      5-min Rain = 0
KME1 111335Z 03018KT 13/01 A301 RMK A01 T01290011  RH  044%=      5-min Rain = 0
KME1 111336Z 03016KT 13/01 A301 RMK A01 T01290010  RH  044%=      5-min Rain = 0
KME1 111337Z 02015G20KT 13/01 A301 RMK A01 T01290009  RH  044%=      5-min Rain = 0
KME1 111338Z 03016G24KT 13/01 A301 RMK A01 T01290008  RH  044%=      5-min Rain = 0
KME1 111339Z 03016KT 13/01 A301 RMK A01 T01300008  RH  043%=      5-min Rain = 0
KME1 111340Z 02015KT 13/01 A301 RMK A01 T01290007  RH  043%=      5-min Rain = 0
KME1 111341Z 03018G23KT 13/01 A301 RMK A01 T01300007  RH  043%=      5-min Rain = 0
KME1 111342Z 02017KT 13/01 A301 RMK A01 T01300006  RH  043%=      5-min Rain = 0
KME1 111343Z 03015KT 13/01 A301 RMK A01 T01300006  RH  043%=      5-min Rain = 0
KME1 111344Z 03014G21KT 13/01 A301 RMK A01 T01300006  RH  043%=      5-min Rain = 0
KME1 111345Z 03012KT 13/01 A301 RMK A01 T01300006  RH  043%=      5-min Rain = 0
KME1 111346Z 03016KT 13/01 A301 RMK A01 T01300006  RH  043%=      5-min Rain = 0
KME1 111347Z 03012KT 13/01 A301 RMK A01 T01300005  RH  042%=      5-min Rain = 0
KME1 111348Z 03013G18KT 13/01 A301 RMK A01 T01300005  RH  042%=      5-min Rain = 0
KME1 111349Z 03012G17KT 13/01 A3011 RMK A01 T01300005  RH  042%=      5-min Rain = 0
KME1 111350Z 04015KT 13/01 A3011 RMK A01 T01300005  RH  042%=      5-min Rain = 0
KME1 111351Z 04014KT 13/01 A3011 RMK A01 T01300005  RH  042%=      5-min Rain = 0
KME1 111352Z 04012KT 13/01 A3011 RMK A01 T01300005  RH  042%=      5-min Rain = 0
KME1 111353Z 03014G19KT 13/01 A3011 RMK A01 T01300005  RH  042%=      5-min Rain = 0
KME1 111354Z 03014KT 13/00 A3011 RMK A01 T01300004  RH  042%=      5-min Rain = 0
KME1 111355Z 04015KT 13/00 A3011 RMK A01 T01310004  RH  042%=      5-min Rain = 0
KME1 111356Z 04012KT 13/00 A3011 RMK A01 T01300004  RH  042%=      5-min Rain = 0
KME1 111357Z 04013KT 13/00 A3011 RMK A01 T01300004  RH  042%=      5-min Rain = 0
KME1 111358Z 03013KT 13/00 A3011 RMK A01 T01310004  RH  042%=      5-min Rain = 0
KME1 111359Z 03014G19KT 13/00 A3011 RMK A01 T01310003  RH  042%=      5-min Rain = 0
KME1 111400Z 03014G19KT 13/00 A3011 RMK A01 T01310002  RH  041%=      5-min Rain = 0
KME1 111401Z 03015G21KT 13/00 A3011 RMK A01 T01310003  RH  041%=      5-min Rain = 0
KME1 111402Z 04013G19KT 13/00 A3011 RMK A01 T01320002  RH  041%=      5-min Rain = 0
KME1 111403Z 03016KT 13/00 A3011 RMK A01 T01320002  RH  041%=      5-min Rain = 0
KME1 111404Z 04013KT 13/00 A3011 RMK A01 T01320002  RH  041%=      5-min Rain = 0
KME1 111405Z 04013G18KT 13/00 A3011 RMK A01 T01320001  RH  041%=      5-min Rain = 0
KME1 111406Z 03009KT 13/00 A3011 RMK A01 T01330002  RH  041%=      5-min Rain = 0
KME1 111407Z 04012G18KT 13/00 A3011 RMK A01 T01330003  RH  041%=      5-min Rain = 0
KME1 111408Z 03013KT 13/00 A3011 RMK A01 T01330001  RH  040%=      5-min Rain = 0
KME1 111409Z 04011KT 13/00 A3011 RMK A01 T01330002  RH  040%=      5-min Rain = 0
KME1 111410Z 03010KT 13/00 A3012 RMK A01 T01330001  RH  040%=      5-min Rain = 0
KME1 111411Z 04010KT 13/00 A3012 RMK A01 T01330001  RH  040%=      5-min Rain = 0
KME1 111412Z 04010KT 13/00 A3012 RMK A01 T01340002  RH  040%=      5-min Rain = 0
KME1 111413Z 03014KT 13/00 A3012 RMK A01 T01340001  RH  040%=      5-min Rain = 0
KME1 111414Z 04011G17KT 13/00 A3012 RMK A01 T01340000  RH  040%=      5-min Rain = 0
KME1 111415Z 03013KT 13/00 A3012 RMK A01 T01340000  RH  040%=      5-min Rain = 0
KME1 111416Z 04011KT 14/00 A3012 RMK A01 T013500-0  RH  040%=      5-min Rain = 0
KME1 111417Z 04012KT 14/00 A3012 RMK A01 T01350000  RH  040%=      5-min Rain = 0
KME1 111418Z 04012KT 14/00 A3012 RMK A01 T013500-0  RH  039%=      5-min Rain = 0
KME1 111419Z 04011G17KT 14/00 A3012 RMK A01 T013600-0  RH  039%=      5-min Rain = 0
KME1 111420Z 04013G20KT 14/00 A3012 RMK A01 T013600-0  RH  039%=      5-min Rain = 0
KME1 111421Z 04013KT 14/M00 A3013 RMK A01 T01361001  RH  039%=      5-min Rain = 0
KME1 111422Z 03012KT 14/M00 A3013 RMK A01 T01371001  RH  039%=      5-min Rain = 0
KME1 111423Z 05012G17KT 14/M00 A3013 RMK A01 T01371001  RH  039%=      5-min Rain = 0
KME1 111424Z 03013KT 14/M00 A3013 RMK A01 T01371001  RH  039%=      5-min Rain = 0
KME1 111425Z 03016G21KT 14/M00 A3013 RMK A01 T01381002  RH  038%=      5-min Rain = 0
KME1 111426Z 04017KT 14/M00 A3013 RMK A01 T01381002  RH  038%=      5-min Rain = 0
KME1 111427Z 04014KT 14/M00 A3013 RMK A01 T01381003  RH  038%=      5-min Rain = 0
KME1 111428Z 04018KT 14/M00 A3013 RMK A01 T01381003  RH  038%=      5-min Rain = 0
KME1 111429Z 03016KT 14/M00 A3013 RMK A01 T01381003  RH  038%=      5-min Rain = 0
KME1 111430Z 03015G21KT 14/M00 A3013 RMK A01 T01381003  RH  038%=      5-min Rain = 0
KME1 111431Z 04012KT 14/M00 A3013 RMK A01 T01391003  RH  038%=      5-min Rain = 0
KME1 111432Z 03011G16KT 14/M00 A3013 RMK A01 T01391003  RH  038%=      5-min Rain = 0
KME1 111433Z 03013KT 14/M00 A3013 RMK A01 T01391003  RH  038%=      5-min Rain = 0
KME1 111434Z 04015G21KT 14/M00 A3013 RMK A01 T01401003  RH  038%=      5-min Rain = 0
KME1 111435Z 04020KT 14/M00 A3014 RMK A01 T01401004  RH  037%=      5-min Rain = 0
KME1 111436Z 03018KT 14/M01 A3014 RMK A01 T01401005  RH  037%=      5-min Rain = 0
KME1 111437Z 03016KT 14/M01 A3013 RMK A01 T01401005  RH  037%=      5-min Rain = 0
KME1 111438Z 03014KT 14/M01 A3014 RMK A01 T01401005  RH  037%=      5-min Rain = 0
KME1 111439Z 04016KT 14/M00 A3014 RMK A01 T01401004  RH  037%=      5-min Rain = 0
KME1 111440Z 04013KT 14/M01 A3014 RMK A01 T01401005  RH  037%=      5-min Rain = 0
KME1 111441Z 04011KT 14/M01 A3014 RMK A01 T01411005  RH  037%=      5-min Rain = 0
KME1 111442Z 04010KT 14/M00 A3014 RMK A01 T01411004  RH  037%=      5-min Rain = 0
KME1 111443Z 03012G18KT 14/M00 A3014 RMK A01 T01411004  RH  037%=      5-min Rain = 0
KME1 111444Z 03012KT 14/M00 A3014 RMK A01 T01421004  RH  037%=      5-min Rain = 0
KME1 111445Z 04015KT 14/M01 A3014 RMK A01 T01421005  RH  036%=      5-min Rain = 0
KME1 111446Z 03014G23KT 14/M01 A3014 RMK A01 T01421005  RH  036%=      5-min Rain = 0
KME1 111447Z 03017KT 14/M01 A3014 RMK A01 T01421006  RH  036%=      5-min Rain = 0
KME1 111448Z 02015KT 14/M01 A3014 RMK A01 T01421007  RH  036%=      5-min Rain = 0
KME1 111449Z 04014KT 14/M01 A3014 RMK A01 T01421006  RH  036%=      5-min Rain = 0
KME1 111450Z 03012G19KT 14/M01 A3014 RMK A01 T01421005  RH  036%=      5-min Rain = 0
KME1 111451Z 03016KT 14/M01 A3014 RMK A01 T01431005  RH  036%=      5-min Rain = 0
KME1 111452Z 03013G19KT 14/M01 A3014 RMK A01 T01431005  RH  036%=      5-min Rain = 0
KME1 111453Z 02015KT 14/M01 A3014 RMK A01 T01431005  RH  036%=      5-min Rain = 0
KME1 111454Z 03013G18KT 14/M01 A3014 RMK A01 T01431005  RH  036%=      5-min Rain = 0
KME1 111455Z 03014KT 14/M01 A3014 RMK A01 T01431006  RH  036%=      5-min Rain = 0
KME1 111456Z 03013KT 14/M01 A3014 RMK A01 T01431005  RH  036%=      5-min Rain = 0
KME1 111457Z 03014KT 14/M01 A3015 RMK A01 T01431005  RH  036%=      5-min Rain = 0
KME1 111458Z 04012KT 14/M01 A3014 RMK A01 T01431005  RH  036%=      5-min Rain = 0
KME1 111459Z 03013G18KT 14/M01 A3014 RMK A01 T01431005  RH  036%=      5-min Rain = 0
KME1 111500Z 03016KT 14/M01 A3015 RMK A01 T01441006  RH  036%=      5-min Rain = 0
KME1 111501Z 03016G22KT 14/M01 A3015 RMK A01 T01441007  RH  036%=      5-min Rain = 0
KME1 111502Z 03013KT 14/M01 A3015 RMK A01 T01431008  RH  035%=      5-min Rain = 0
KME1 111503Z 03018G24KT 14/M01 A3015 RMK A01 T01431009  RH  035%=      5-min Rain = 0
KME1 111504Z 03018G24KT 14/M01 A3015 RMK A01 T01431011  RH  035%=      5-min Rain = 0
KME1 111505Z 03014KT 14/M01 A3015 RMK A01 T01431012  RH  034%=      5-min Rain = 0
KME1 111506Z 03012G17KT 14/M01 A3015 RMK A01 T01431012  RH  034%=      5-min Rain = 0
KME1 111507Z 04019KT 14/M01 A3015 RMK A01 T01431012  RH  034%=      5-min Rain = 0
KME1 111508Z 04016KT 14/M01 A3015 RMK A01 T01431013  RH  034%=      5-min Rain = 0
KME1 111509Z 04018KT 14/M01 A3015 RMK A01 T01431013  RH  034%=      5-min Rain = 0
KME1 111510Z 03017KT 14/M01 A3015 RMK A01 T01431014  RH  034%=      5-min Rain = 0
KME1 111511Z 03021KT 14/M01 A3016 RMK A01 T01431014  RH  034%=      5-min Rain = 0
KME1 111512Z 03018G24KT 14/M02 A3016 RMK A01 T01421016  RH  034%=      5-min Rain = 0
KME1 111513Z 03019KT 14/M02 A3016 RMK A01 T01421015  RH  034%=      5-min Rain = 0
KME1 111514Z 03018KT 14/M02 A3016 RMK A01 T01421015  RH  034%=      5-min Rain = 0
KME1 111515Z 03016G21KT 14/M02 A3016 RMK A01 T01421015  RH  034%=      5-min Rain = 0
KME1 111516Z 03015KT 14/M02 A3016 RMK A01 T01421015  RH  034%=      5-min Rain = 0
KME1 111517Z 03016KT 14/M01 A3016 RMK A01 T01421014  RH  034%=      5-min Rain = 0
KME1 111518Z 04016KT 14/M01 A3016 RMK A01 T01421014  RH  034%=      5-min Rain = 0
KME1 111519Z 03015KT 14/M01 A3016 RMK A01 T01421014  RH  034%=      5-min Rain = 0
KME1 111520Z 04015KT 14/M01 A3016 RMK A01 T01421014  RH  034%=      5-min Rain = 0
KME1 111521Z 03016G22KT 14/M01 A3016 RMK A01 T01421014  RH  034%=      5-min Rain = 0
KME1 111522Z 04017KT 14/M02 A3016 RMK A01 T01421015  RH  034%=      5-min Rain = 0
KME1 111523Z 04015G20KT 14/M02 A3017 RMK A01 T01421015  RH  034%=      5-min Rain = 0
KME1 111524Z 03015KT 14/M01 A3017 RMK A01 T01421014  RH  034%=      5-min Rain = 0
KME1 111525Z 02015G20KT 14/M02 A3017 RMK A01 T01421015  RH  034%=      5-min Rain = 0
KME1 111526Z 04015KT 14/M02 A3017 RMK A01 T01421015  RH  034%=      5-min Rain = 0
KME1 111527Z 03011KT 14/M02 A3017 RMK A01 T01421015  RH  034%=      5-min Rain = 0
KME1 111528Z 03014G19KT 14/M01 A3017 RMK A01 T01431014  RH  034%=      5-min Rain = 0
KME1 111529Z 04015G20KT 14/M02 A3017 RMK A01 T01441015  RH  034%=      5-min Rain = 0
KME1 111530Z 04016KT 14/M02 A3017 RMK A01 T01431016  RH  033%=      5-min Rain = 0
KME1 111531Z 03013G19KT 14/M02 A3017 RMK A01 T01431016  RH  033%=      5-min Rain = 0
KME1 111532Z 04017KT 14/M02 A3017 RMK A01 T01431015  RH  033%=      5-min Rain = 0
KME1 111533Z 03013KT 14/M02 A3017 RMK A01 T01431016  RH  033%=      5-min Rain = 0
KME1 111534Z 03016KT 14/M02 A3017 RMK A01 T01431016  RH  033%=      5-min Rain = 0
KME1 111535Z 03013KT 14/M02 A3017 RMK A01 T01441016  RH  033%=      5-min Rain = 0
KME1 111536Z 04011KT 14/M02 A3017 RMK A01 T01431016  RH  033%=      5-min Rain = 0
KME1 111537Z 03013G19KT 14/M02 A3017 RMK A01 T01441015  RH  033%=      5-min Rain = 0
KME1 111538Z 03018KT 14/M02 A3017 RMK A01 T01441016  RH  033%=      5-min Rain = 0
KME1 111539Z 03017KT 14/M02 A3017 RMK A01 T01441017  RH  033%=      5-min Rain = 0
KME1 111540Z 03015KT 14/M02 A3017 RMK A01 T01431017  RH  033%=      5-min Rain = 0
KME1 111541Z 03012G17KT 14/M02 A3017 RMK A01 T01431016  RH  033%=      5-min Rain = 0
KME1 111542Z 03015KT 14/M02 A3017 RMK A01 T01431016  RH  033%=      5-min Rain = 0
KME1 111543Z 03012KT 14/M02 A3017 RMK A01 T01431016  RH  033%=      5-min Rain = 0
KME1 111544Z 04012KT 14/M01 A3017 RMK A01 T01441014  RH  033%=      5-min Rain = 0
KME1 111545Z 04015KT 15/M01 A3017 RMK A01 T01461014  RH  033%=      5-min Rain = 0
KME1 111546Z 03014KT 15/M02 A3017 RMK A01 T01451015  RH  033%=      5-min Rain = 0
KME1 111547Z 03013KT 15/M02 A3017 RMK A01 T01451015  RH  033%=      5-min Rain = 0
KME1 111548Z 02012KT 15/M02 A3017 RMK A01 T01451015  RH  033%=      5-min Rain = 0
KME1 111549Z 01018KT 15/M02 A3017 RMK A01 T01451016  RH  033%=      5-min Rain = 0
KME1 111550Z 03019KT 15/M02 A3017 RMK A01 T01461017  RH  032%=      5-min Rain = 0
KME1 111551Z 02013KT 15/M02 A3017 RMK A01 T01461018  RH  032%=      5-min Rain = 0
KME1 111552Z 03015G21KT 15/M02 A3017 RMK A01 T01451018  RH  032%=      5-min Rain = 0
KME1 111553Z 03015KT 15/M02 A3017 RMK A01 T01461018  RH  032%=      5-min Rain = 0
KME1 111554Z 02017KT 15/M02 A3018 RMK A01 T01461018  RH  032%=      5-min Rain = 0
KME1 111555Z 03015KT 15/M02 A3017 RMK A01 T01461019  RH  032%=      5-min Rain = 0
KME1 111556Z 02014G21KT 15/M02 A3017 RMK A01 T01451018  RH  032%=      5-min Rain = 0
KME1 111557Z 02018KT 15/M02 A3018 RMK A01 T01451019  RH  032%=      5-min Rain = 0
KME1 111558Z 02018KT 15/M02 A3018 RMK A01 T01451021  RH  032%=      5-min Rain = 0
KME1 111559Z 02016KT 14/M02 A3018 RMK A01 T01441022  RH  032%=      5-min Rain = 0
KME1 111600Z 01016KT 14/M02 A3018 RMK A01 T01441022  RH  032%=      5-min Rain = 0
KME1 111601Z 02018KT 14/M02 A3018 RMK A01 T01441022  RH  032%=      5-min Rain = 0
KME1 111602Z 01019KT 14/M02 A3019 RMK A01 T01441022  RH  032%=      5-min Rain = 0
KME1 111603Z 02016KT 14/M02 A3019 RMK A01 T01431022  RH  032%=      5-min Rain = 0
KME1 111604Z 02013KT 14/M02 A3019 RMK A01 T01441021  RH  032%=      5-min Rain = 0
KME1 111605Z 02015G21KT 15/M02 A3019 RMK A01 T01461020  RH  032%=      5-min Rain = 0
KME1 111606Z 02016G21KT 15/M02 A3019 RMK A01 T01471021  RH  031%=      5-min Rain = 0
KME1 111607Z 01015KT 15/M02 A3019 RMK A01 T01471021  RH  031%=      5-min Rain = 0
KME1 111608Z 02013G18KT 15/M02 A3019 RMK A01 T01471021  RH  031%=      5-min Rain = 0
KME1 111609Z 03015G20KT 15/M02 A3019 RMK A01 T01461021  RH  031%=      5-min Rain = 0
KME1 111610Z 03015G21KT 15/M02 A3019 RMK A01 T01461021  RH  031%=      5-min Rain = 0
KME1 111611Z 02017KT 15/M02 A302 RMK A01 T01461021  RH  031%=      5-min Rain = 0
KME1 111612Z 02018KT 15/M02 A302 RMK A01 T01451022  RH  031%=      5-min Rain = 0
KME1 111613Z 03016G21KT 14/M02 A302 RMK A01 T01441023  RH  031%=      5-min Rain = 0
KME1 111614Z 03015G20KT 14/M02 A302 RMK A01 T01441023  RH  032%=      5-min Rain = 0
KME1 111615Z 03015KT 14/M02 A302 RMK A01 T01431022  RH  032%=      5-min Rain = 0
KME1 111616Z 03013KT 14/M02 A302 RMK A01 T01431022  RH  032%=      5-min Rain = 0
KME1 111617Z 01014KT 14/M02 A302 RMK A01 T01431022  RH  032%=      5-min Rain = 0
KME1 111618Z 01019KT 14/M02 A302 RMK A01 T01431021  RH  032%=      5-min Rain = 0
KME1 111619Z 01017KT 14/M02 A302 RMK A01 T01431022  RH  032%=      5-min Rain = 0
KME1 111620Z 01015G20KT 14/M02 A302 RMK A01 T01421023  RH  032%=      5-min Rain = 0
KME1 111621Z 01016KT 14/M02 A302 RMK A01 T01421023  RH  032%=      5-min Rain = 0
KME1 111622Z 02019KT 14/M02 A302 RMK A01 T01431023  RH  032%=      5-min Rain = 0
KME1 111623Z 02018G23KT 14/M02 A302 RMK A01 T01421023  RH  032%=      5-min Rain = 0
KME1 111624Z 02017KT 14/M02 A302 RMK A01 T01411024  RH  032%=      5-min Rain = 0
KME1 111625Z 02016G22KT 14/M02 A302 RMK A01 T01411024  RH  032%=      5-min Rain = 0
KME1 111626Z 02014G20KT 14/M02 A3021 RMK A01 T01411023  RH  032%=      5-min Rain = 0
KME1 111627Z 02018G23KT 14/M02 A3021 RMK A01 T01421024  RH  032%=      5-min Rain = 0
KME1 111628Z 03016G23KT 14/M03 A3021 RMK A01 T01431025  RH  031%=      5-min Rain = 0
KME1 111629Z 03015G23KT 14/M02 A3021 RMK A01 T01431024  RH  031%=      5-min Rain = 0
KME1 111630Z 03018G24KT 14/M03 A3021 RMK A01 T01431026  RH  031%=      5-min Rain = 0
KME1 111631Z 03021KT 14/M03 A3021 RMK A01 T01431028  RH  031%=      5-min Rain = 0
KME1 111632Z 04018KT 14/M03 A3021 RMK A01 T01421028  RH  031%=      5-min Rain = 0
KME1 111633Z 03017G22KT 14/M03 A3021 RMK A01 T01421028  RH  031%=      5-min Rain = 0
KME1 111634Z 03017KT 14/M03 A3021 RMK A01 T01421028  RH  031%=      5-min Rain = 0
KME1 111635Z 03018KT 14/M03 A3021 RMK A01 T01431028  RH  031%=      5-min Rain = 0
KME1 111636Z 04018KT 14/M03 A3021 RMK A01 T01431030  RH  030%=      5-min Rain = 0
KME1 111637Z 03016G22KT 14/M03 A3021 RMK A01 T01421032  RH  030%=      5-min Rain = 0
KME1 111638Z 03019G25KT 14/M03 A3021 RMK A01 T01421033  RH  030%=      5-min Rain = 0
KME1 111639Z 03019KT 14/M03 A3021 RMK A01 T01431033  RH  029%=      5-min Rain = 0
KME1 111640Z 03019KT 14/M03 A3021 RMK A01 T01421032  RH  030%=      5-min Rain = 0
KME1 111641Z 03016KT 14/M03 A3021 RMK A01 T01421031  RH  030%=      5-min Rain = 0
KME1 111642Z 04017G23KT 14/M03 A3021 RMK A01 T01431031  RH  030%=      5-min Rain = 0
KME1 111643Z 04015KT 14/M03 A3021 RMK A01 T01431031  RH  030%=      5-min Rain = 0
KME1 111644Z 03017KT 14/M03 A3021 RMK A01 T01441031  RH  030%=      5-min Rain = 0
KME1 111645Z 03020G26KT 14/M04 A3021 RMK A01 T01441036  RH  029%=      5-min Rain = 0
KME1 111646Z 04018G23KT 14/M04 A3021 RMK A01 T01431039  RH  028%=      5-min Rain = 0
KME1 111647Z 03016G21KT 14/M04 A3021 RMK A01 T01421039  RH  028%=      5-min Rain = 0
KME1 111648Z 03015G21KT 14/M04 A3021 RMK A01 T01431038  RH  028%=      5-min Rain = 0
KME1 111649Z 02017G23KT 14/M04 A3021 RMK A01 T01441038  RH  028%=      5-min Rain = 0
KME1 111650Z 03015G22KT 14/M04 A3021 RMK A01 T01431039  RH  028%=      5-min Rain = 0
KME1 111651Z 03019G27KT 14/M04 A3021 RMK A01 T01441038  RH  028%=      5-min Rain = 0
KME1 111652Z 04017G23KT 14/M04 A3021 RMK A01 T01431038  RH  028%=      5-min Rain = 0
KME1 111653Z 03016KT 14/M04 A3021 RMK A01 T01431037  RH  029%=      5-min Rain = 0
KME1 111654Z 04015KT 14/M04 A3021 RMK A01 T01441036  RH  029%=      5-min Rain = 0
KME1 111655Z 03017KT 14/M04 A3021 RMK A01 T01441036  RH  029%=      5-min Rain = 0
KME1 111656Z 04015G21KT 14/M04 A3021 RMK A01 T01431036  RH  029%=      5-min Rain = 0
KME1 111657Z 03011KT 14/M04 A3021 RMK A01 T01431035  RH  029%=      5-min Rain = 0
KME1 111658Z 03015G20KT 14/M03 A3021 RMK A01 T01441033  RH  029%=      5-min Rain = 0
KME1 111659Z 04019KT 14/M03 A3021 RMK A01 T01441032  RH  029%=      5-min Rain = 0
KME1 111700Z 04018KT 14/M03 A3021 RMK A01 T01431033  RH  029%=      5-min Rain = 0
KME1 111701Z 04015KT 14/M03 A3021 RMK A01 T01421033  RH  030%=      5-min Rain = 0
KME1 111702Z 04016KT 14/M03 A3022 RMK A01 T01421033  RH  030%=      5-min Rain = 0
KME1 111703Z 05012G18KT 14/M03 A3021 RMK A01 T01421033  RH  030%=      5-min Rain = 0
KME1 111704Z 03014KT 14/M03 A3021 RMK A01 T01441029  RH  030%=      5-min Rain = 0
KME1 111705Z 03016KT 15/M03 A3021 RMK A01 T01451030  RH  030%=      5-min Rain = 0
KME1 111706Z 03015KT 14/M03 A3022 RMK A01 T01441031  RH  030%=      5-min Rain = 0
KME1 111707Z 03015G20KT 14/M03 A3022 RMK A01 T01441031  RH  030%=      5-min Rain = 0
KME1 111708Z 04015KT 14/M03 A3022 RMK A01 T01441030  RH  030%=      5-min Rain = 0
KME1 111709Z 04014KT 14/M03 A3022 RMK A01 T01441029  RH  030%=      5-min Rain = 0
KME1 111710Z 04012G18KT 14/M03 A3022 RMK A01 T01441028  RH  030%=      5-min Rain = 0
KME1 111711Z 04013KT 14/M03 A3022 RMK A01 T01441028  RH  030%=      5-min Rain = 0
KME1 111712Z 05015KT 14/M03 A3022 RMK A01 T01441028  RH  030%=      5-min Rain = 0
KME1 111713Z 03012G17KT 14/M03 A3022 RMK A01 T01431028  RH  031%=      5-min Rain = 0
KME1 111714Z 03013KT 14/M03 A3022 RMK A01 T01431027  RH  031%=      5-min Rain = 0
KME1 111715Z 03012KT 14/M03 A3022 RMK A01 T01431027  RH  031%=      5-min Rain = 0
KME1 111716Z 02015KT 14/M02 A3022 RMK A01 T01441024  RH  031%=      5-min Rain = 0
KME1 111717Z 00017KT 15/M02 A3022 RMK A01 T01451023  RH  031%=      5-min Rain = 0
KME1 111718Z 00013G18KT 15/M02 A3022 RMK A01 T01451023  RH  031%=      5-min Rain = 0
KME1 111719Z 01014G20KT 15/M02 A3022 RMK A01 T01451023  RH  031%=      5-min Rain = 0
KME1 111720Z 00018KT 14/M02 A3022 RMK A01 T01441024  RH  031%=      5-min Rain = 0
KME1 111721Z 01016KT 14/M03 A3022 RMK A01 T01431025  RH  031%=      5-min Rain = 0
KME1 111722Z 01014G19KT 14/M03 A3022 RMK A01 T01421025  RH  031%=      5-min Rain = 0
KME1 111723Z 00015KT 14/M03 A3022 RMK A01 T01421025  RH  031%=      5-min Rain = 0
KME1 111724Z 01014G19KT 14/M03 A3022 RMK A01 T01421025  RH  031%=      5-min Rain = 0
KME1 111725Z 00014KT 14/M03 A3022 RMK A01 T01421025  RH  031%=      5-min Rain = 0
KME1 111726Z 01016KT 14/M03 A3022 RMK A01 T01431025  RH  031%=      5-min Rain = 0
KME1 111727Z 01017KT 14/M03 A3022 RMK A01 T01421026  RH  031%=      5-min Rain = 0
KME1 111728Z 00014KT 14/M03 A3022 RMK A01 T01421026  RH  031%=      5-min Rain = 0
KME1 111729Z 02013G19KT 14/M02 A3022 RMK A01 T01441023  RH  031%=      5-min Rain = 0
KME1 111730Z 01013KT 15/M02 A3022 RMK A01 T01461023  RH  031%=      5-min Rain = 0
KME1 111731Z 01015KT 15/M03 A3022 RMK A01 T01461025  RH  031%=      5-min Rain = 0
KME1 111732Z 01016KT 15/M03 A3022 RMK A01 T01451027  RH  031%=      5-min Rain = 0
KME1 111733Z 01016KT 14/M03 A3022 RMK A01 T01441026  RH  031%=      5-min Rain = 0
KME1 111734Z 02019KT 15/M03 A3022 RMK A01 T01451026  RH  031%=      5-min Rain = 0
KME1 111735Z 02016KT 14/M03 A3022 RMK A01 T01441026  RH  031%=      5-min Rain = 0
KME1 111736Z 01017G22KT 14/M03 A3022 RMK A01 T01441026  RH  031%=      5-min Rain = 0
KME1 111737Z 01015KT 14/M03 A3022 RMK A01 T01441026  RH  031%=      5-min Rain = 0
KME1 111738Z 02016KT 14/M03 A3022 RMK A01 T01441026  RH  031%=      5-min Rain = 0
KME1 111739Z 02013G18KT 14/M03 A3022 RMK A01 T01431027  RH  031%=      5-min Rain = 0
KME1 111740Z 01013G19KT 15/M02 A3022 RMK A01 T01461024  RH  031%=      5-min Rain = 0
KME1 111741Z 02017KT 15/M03 A3022 RMK A01 T01471027  RH  030%=      5-min Rain = 0
KME1 111742Z 02016KT 15/M03 A3022 RMK A01 T01481028  RH  030%=      5-min Rain = 0
KME1 111743Z 02016KT 15/M03 A3022 RMK A01 T01481030  RH  029%=      5-min Rain = 0
KME1 111744Z 02014KT 15/M03 A3022 RMK A01 T01471031  RH  029%=      5-min Rain = 0
KME1 111745Z 03014KT 15/M03 A3022 RMK A01 T01471030  RH  029%=      5-min Rain = 0
KME1 111746Z 02015G20KT 15/M03 A3022 RMK A01 T01481028  RH  030%=      5-min Rain = 0
KME1 111747Z 02016G21KT 15/M03 A3022 RMK A01 T01491028  RH  029%=      5-min Rain = 0
KME1 111748Z 02014KT 15/M03 A3022 RMK A01 T01481028  RH  030%=      5-min Rain = 0
KME1 111749Z 02012KT 15/M03 A3022 RMK A01 T01471028  RH  030%=      5-min Rain = 0
KME1 111750Z 01016KT 15/M03 A3022 RMK A01 T01481027  RH  030%=      5-min Rain = 0
KME1 111751Z 00015KT 15/M03 A3022 RMK A01 T01491028  RH  029%=      5-min Rain = 0
KME1 111752Z 00016G21KT 15/M03 A3022 RMK A01 T01491027  RH  029%=      5-min Rain = 0
KME1 111753Z 01015G22KT 15/M03 A3022 RMK A01 T01501027  RH  029%=      5-min Rain = 0
KME1 111754Z 02017KT 15/M03 A3022 RMK A01 T01511029  RH  029%=      5-min Rain = 0
KME1 111755Z 02017KT 15/M03 A3022 RMK A01 T01501029  RH  029%=      5-min Rain = 0
KME1 111756Z 02015KT 15/M03 A3022 RMK A01 T01501030  RH  029%=      5-min Rain = 0
KME1 111757Z 03013G18KT 15/M03 A3022 RMK A01 T01481029  RH  029%=      5-min Rain = 0
KME1 111758Z 02015KT 15/M03 A3022 RMK A01 T01491028  RH  029%=      5-min Rain = 0
KME1 111759Z 03015KT 15/M03 A3022 RMK A01 T01501028  RH  029%=      5-min Rain = 0
KME1 111800Z 02017KT 15/M03 A3022 RMK A01 T01491028  RH  029%=      5-min Rain = 0
KME1 111801Z 02015G20KT 15/M03 A3022 RMK A01 T01501026  RH  030%=      5-min Rain = 0
KME1 111802Z 03014G19KT 15/M03 A3022 RMK A01 T01491026  RH  030%=      5-min Rain = 0
KME1 111803Z 03016KT 15/M02 A3022 RMK A01 T01491024  RH  030%=      5-min Rain = 0
KME1 111804Z 02013KT 15/M02 A3022 RMK A01 T01491023  RH  030%=      5-min Rain = 0
KME1 111805Z 02012KT 15/M02 A3022 RMK A01 T01501022  RH  031%=      5-min Rain = 0
KME1 111806Z 01012KT 15/M02 A3022 RMK A01 T01511021  RH  031%=      5-min Rain = 0
KME1 111807Z 02013G18KT 15/M02 A3023 RMK A01 T01531021  RH  030%=      5-min Rain = 0
KME1 111808Z 01014KT 15/M02 A3023 RMK A01 T01511023  RH  030%=      5-min Rain = 0
KME1 111809Z 01014KT 15/M03 A3023 RMK A01 T01491025  RH  030%=      5-min Rain = 0
KME1 111810Z 02013KT 15/M02 A3023 RMK A01 T01491023  RH  030%=      5-min Rain = 0
KME1 111811Z 01015KT 15/M02 A3023 RMK A01 T01511021  RH  030%=      5-min Rain = 0
KME1 111812Z 01014G19KT 15/M02 A3023 RMK A01 T01521022  RH  030%=      5-min Rain = 0
KME1 111813Z 01013KT 15/M02 A3023 RMK A01 T01521021  RH  030%=      5-min Rain = 0
KME1 111814Z 00014KT 15/M02 A3023 RMK A01 T01521023  RH  030%=      5-min Rain = 0
KME1 111815Z 01014G19KT 15/M03 A3023 RMK A01 T01511026  RH  029%=      5-min Rain = 0
KME1 111816Z 00016KT 15/M03 A3023 RMK A01 T01501028  RH  029%=      5-min Rain = 0
KME1 111817Z 01013G18KT 15/M03 A3023 RMK A01 T01481030  RH  029%=      5-min Rain = 0
KME1 111818Z 01012KT 15/M03 A3023 RMK A01 T01471029  RH  030%=      5-min Rain = 0
KME1 111819Z 02013KT 15/M03 A3022 RMK A01 T01481028  RH  030%=      5-min Rain = 0
KME1 111820Z 02013KT 15/M03 A3022 RMK A01 T01481030  RH  029%=      5-min Rain = 0
KME1 111821Z 02014KT 15/M03 A3022 RMK A01 T01481030  RH  029%=      5-min Rain = 0
KME1 111822Z 02015KT 15/M03 A3022 RMK A01 T01491032  RH  028%=      5-min Rain = 0
KME1 111823Z 01016KT 15/M03 A3022 RMK A01 T01491034  RH  028%=      5-min Rain = 0
KME1 111824Z 01016KT 15/M03 A3022 RMK A01 T01491034  RH  028%=      5-min Rain = 0
KME1 111825Z 01014KT 15/M03 A3023 RMK A01 T01481034  RH  028%=      5-min Rain = 0
KME1 111826Z 01017KT 15/M03 A3023 RMK A01 T01481033  RH  028%=      5-min Rain = 0
KME1 111827Z 01017KT 15/M03 A3023 RMK A01 T01481034  RH  028%=      5-min Rain = 0
KME1 111828Z 01015G21KT 15/M03 A3023 RMK A01 T01471034  RH  028%=      5-min Rain = 0
KME1 111829Z 01014G19KT 15/M03 A3023 RMK A01 T01471033  RH  029%=      5-min Rain = 0
KME1 111830Z 01013G18KT 15/M03 A3023 RMK A01 T01481033  RH  029%=      5-min Rain = 0
KME1 111831Z 02013G19KT 15/M03 A3023 RMK A01 T01491033  RH  028%=      5-min Rain = 0
KME1 111832Z 01014KT 15/M03 A3023 RMK A01 T01491032  RH  029%=      5-min Rain = 0
KME1 111833Z 01015KT 15/M03 A3023 RMK A01 T01501032  RH  028%=      5-min Rain = 0
KME1 111834Z 02011G16KT 15/M03 A3022 RMK A01 T01501032  RH  028%=      5-min Rain = 0
KME1 111835Z 01015G21KT 15/M03 A3022 RMK A01 T01511031  RH  028%=      5-min Rain = 0
KME1 111836Z 01016KT 15/M03 A3022 RMK A01 T01511033  RH  028%=      5-min Rain = 0
KME1 111837Z 02013G18KT 15/M03 A3022 RMK A01 T01511032  RH  028%=      5-min Rain = 0
KME1 111838Z 02015KT 15/M03 A3023 RMK A01 T01511031  RH  028%=      5-min Rain = 0
KME1 111839Z 02018KT 15/M03 A3023 RMK A01 T01511032  RH  028%=      5-min Rain = 0
KME1 111840Z 02014KT 15/M04 A3022 RMK A01 T01481035  RH  028%=      5-min Rain = 0
KME1 111841Z 01013KT 15/M03 A3022 RMK A01 T01481033  RH  028%=      5-min Rain = 0
KME1 111842Z 01017KT 15/M04 A3022 RMK A01 T01481035  RH  028%=      5-min Rain = 0
KME1 111843Z 01015KT 15/M04 A3022 RMK A01 T01491037  RH  027%=      5-min Rain = 0
KME1 111844Z 01012KT 15/M04 A3022 RMK A01 T01491039  RH  027%=      5-min Rain = 0
KME1 111845Z 01013KT 15/M04 A3022 RMK A01 T01511038  RH  027%=      5-min Rain = 0
KME1 111846Z 01017KT 15/M04 A3022 RMK A01 T01531039  RH  026%=      5-min Rain = 0
KME1 111847Z 01017KT 15/M04 A3022 RMK A01 T01521042  RH  026%=      5-min Rain = 0
KME1 111848Z 01015KT 15/M04 A3022 RMK A01 T01501043  RH  026%=      5-min Rain = 0
KME1 111849Z 02016KT 15/M04 A3022 RMK A01 T01511043  RH  026%=      5-min Rain = 0
KME1 111850Z 02015KT 15/M04 A3022 RMK A01 T01521042  RH  026%=      5-min Rain = 0
KME1 111851Z 01013KT 15/M04 A3022 RMK A01 T01521043  RH  026%=      5-min Rain = 0
KME1 111852Z 02013KT 15/M04 A3022 RMK A01 T01531040  RH  026%=      5-min Rain = 0
KME1 111853Z 02014KT 15/M04 A3022 RMK A01 T01541038  RH  026%=      5-min Rain = 0
KME1 111854Z 02016KT 15/M04 A3022 RMK A01 T01541037  RH  027%=      5-min Rain = 0
KME1 111855Z 01016KT 15/M04 A3022 RMK A01 T01531037  RH  027%=      5-min Rain = 0
KME1 111856Z 02017KT 15/M04 A3022 RMK A01 T01521037  RH  027%=      5-min Rain = 0
KME1 111857Z 02014KT 15/M04 A3022 RMK A01 T01511038  RH  027%=      5-min Rain = 0
KME1 111858Z 03014KT 15/M04 A3022 RMK A01 T01511036  RH  027%=      5-min Rain = 0
KME1 111859Z 02010KT 15/M03 A3022 RMK A01 T01511034  RH  028%=      5-min Rain = 0
KME1 111900Z 01010KT 15/M03 A3022 RMK A01 T01521033  RH  028%=      5-min Rain = 0
KME1 111901Z 00012KT 15/M03 A3022 RMK A01 T01541030  RH  028%=      5-min Rain = 0
KME1 111902Z 01011KT 15/M03 A3021 RMK A01 T01541030  RH  028%=      5-min Rain = 0
KME1 111903Z 02012KT 15/M03 A3022 RMK A01 T01531030  RH  028%=      5-min Rain = 0
KME1 111904Z 01013KT 15/M03 A3022 RMK A01 T01531031  RH  028%=      5-min Rain = 0
KME1 111905Z 02010G15KT 15/M03 A3022 RMK A01 T01541030  RH  028%=      5-min Rain = 0
KME1 111906Z 03013KT 16/M03 A3022 RMK A01 T01551029  RH  028%=      5-min Rain = 0
KME1 111907Z 03012KT 16/M03 A3022 RMK A01 T01551029  RH  028%=      5-min Rain = 0
KME1 111908Z 02015KT 15/M03 A3022 RMK A01 T01541028  RH  028%=      5-min Rain = 0
KME1 111909Z 01015KT 16/M03 A3022 RMK A01 T01551028  RH  028%=      5-min Rain = 0
KME1 111910Z 02013KT 15/M03 A3022 RMK A01 T01541028  RH  028%=      5-min Rain = 0
KME1 111911Z 00013G19KT 15/M03 A3022 RMK A01 T01531028  RH  029%=      5-min Rain = 0
KME1 111912Z 01016KT 15/M03 A3022 RMK A01 T01531030  RH  028%=      5-min Rain = 0
KME1 111913Z 01014KT 15/M03 A3022 RMK A01 T01531032  RH  028%=      5-min Rain = 0
KME1 111914Z 01016KT 15/M03 A3022 RMK A01 T01531033  RH  028%=      5-min Rain = 0
KME1 111915Z 00015G20KT 15/M04 A3021 RMK A01 T01521035  RH  027%=      5-min Rain = 0
KME1 111916Z 02011KT 15/M04 A3021 RMK A01 T01511036  RH  027%=      5-min Rain = 0
KME1 111917Z 02010KT 15/M03 A3021 RMK A01 T01521034  RH  028%=      5-min Rain = 0
KME1 111918Z 01011KT 15/M03 A3021 RMK A01 T01541033  RH  028%=      5-min Rain = 0
KME1 111919Z 02013KT 15/M03 A3021 RMK A01 T01541034  RH  027%=      5-min Rain = 0
KME1 111920Z 01014KT 15/M04 A3021 RMK A01 T01541035  RH  027%=      5-min Rain = 0
KME1 111921Z 01015KT 15/M04 A3021 RMK A01 T01531037  RH  027%=      5-min Rain = 0
KME1 111922Z 01016KT 15/M04 A3021 RMK A01 T01531039  RH  026%=      5-min Rain = 0
KME1 111923Z 02012KT 15/M04 A3021 RMK A01 T01531041  RH  026%=      5-min Rain = 0
KME1 111924Z 01011KT 15/M04 A3021 RMK A01 T01531040  RH  026%=      5-min Rain = 0
KME1 111925Z 01013KT 16/M04 A3021 RMK A01 T01551037  RH  026%=      5-min Rain = 0
KME1 111926Z 02012KT 16/M04 A3021 RMK A01 T01571038  RH  026%=      5-min Rain = 0
KME1 111927Z 02013KT 16/M04 A3021 RMK A01 T01581038  RH  026%=      5-min Rain = 0
KME1 111928Z 01018KT 16/M04 A3021 RMK A01 T01591040  RH  025%=      5-min Rain = 0
KME1 111929Z 02015G20KT 16/M04 A3021 RMK A01 T01571042  RH  025%=      5-min Rain = 0
KME1 111930Z 02015KT 16/M04 A3021 RMK A01 T01571039  RH  026%=      5-min Rain = 0
KME1 111931Z 03015KT 16/M04 A3021 RMK A01 T01581039  RH  026%=      5-min Rain = 0
KME1 111932Z 03010KT 16/M04 A3021 RMK A01 T01581038  RH  026%=      5-min Rain = 0
KME1 111933Z 02013KT 16/M04 A3021 RMK A01 T01621035  RH  026%=      5-min Rain = 0
KME1 111934Z 02013KT 16/M04 A3021 RMK A01 T01631037  RH  025%=      5-min Rain = 0
KME1 111935Z 02014KT 16/M04 A3021 RMK A01 T01621035  RH  026%=      5-min Rain = 0
KME1 111936Z 02012KT 16/M03 A3021 RMK A01 T01621033  RH  026%=      5-min Rain = 0
KME1 111937Z 01010KT 16/M03 A3021 RMK A01 T01611034  RH  026%=      5-min Rain = 0
KME1 111938Z 01011KT 16/M03 A3021 RMK A01 T01611032  RH  026%=      5-min Rain = 0
KME1 111939Z 03008KT 16/M03 A3021 RMK A01 T01621032  RH  026%=      5-min Rain = 0
KME1 111940Z 02009KT 17/M03 A3021 RMK A01 T01651029  RH  026%=      5-min Rain = 0
KME1 111941Z 01010G15KT 17/M03 A3021 RMK A01 T01671031  RH  026%=      5-min Rain = 0
KME1 111942Z 01016KT 17/M03 A3021 RMK A01 T01691033  RH  025%=      5-min Rain = 0
KME1 111943Z 01016KT 17/M04 A3021 RMK A01 T01671040  RH  024%=      5-min Rain = 0
KME1 111944Z 01016KT 16/M04 A3021 RMK A01 T01631042  RH  024%=      5-min Rain = 0
KME1 111945Z 01017KT 16/M04 A3021 RMK A01 T01601042  RH  025%=      5-min Rain = 0
KME1 111946Z 01017KT 16/M04 A3021 RMK A01 T01581043  RH  025%=      5-min Rain = 0
KME1 111947Z 01015KT 16/M04 A3021 RMK A01 T01571044  RH  025%=      5-min Rain = 0
KME1 111948Z 02011KT 16/M04 A302 RMK A01 T01561042  RH  025%=      5-min Rain = 0
KME1 111949Z 02012G17KT 16/M04 A302 RMK A01 T01581039  RH  025%=      5-min Rain = 0
KME1 111950Z 01008KT 16/M04 A302 RMK A01 T01611039  RH  025%=      5-min Rain = 0
KME1 111951Z 01010KT 16/M04 A302 RMK A01 T01611038  RH  025%=      5-min Rain = 0
KME1 111952Z 02012KT 17/M04 A302 RMK A01 T01651035  RH  025%=      5-min Rain = 0
KME1 111953Z 02011KT 17/M04 A302 RMK A01 T01681036  RH  025%=      5-min Rain = 0
KME1 111954Z 03012KT 17/M04 A302 RMK A01 T01691036  RH  024%=      5-min Rain = 0
KME1 111955Z 02012KT 17/M04 A302 RMK A01 T01721038  RH  023%=      5-min Rain = 0
KME1 111956Z 02012KT 17/M04 A3021 RMK A01 T01711038  RH  024%=      5-min Rain = 0
KME1 111957Z 02009KT 17/M04 A302 RMK A01 T01711037  RH  024%=      5-min Rain = 0
KME1 111958Z 02010KT 17/M04 A302 RMK A01 T01711036  RH  024%=      5-min Rain = 0
KME1 111959Z 01013G18KT 17/M04 A302 RMK A01 T01701036  RH  024%=      5-min Rain = 0
KME1 112000Z 01014KT 17/M04 A302 RMK A01 T01671041  RH  024%=      5-min Rain = 0
KME1 112001Z 01015KT 16/M04 A302 RMK A01 T01631043  RH  024%=      5-min Rain = 0
KME1 112002Z 01018G25KT 16/M04 A3021 RMK A01 T01611043  RH  024%=      5-min Rain = 0
KME1 112003Z 03013KT 16/M04 A3021 RMK A01 T01591042  RH  025%=      5-min Rain = 0
KME1 112004Z 03016KT 16/M04 A3021 RMK A01 T01591043  RH  025%=      5-min Rain = 0
KME1 112005Z 02015KT 16/M04 A302 RMK A01 T01581043  RH  025%=      5-min Rain = 0
KME1 112006Z 02013KT 16/M04 A302 RMK A01 T01571041  RH  025%=      5-min Rain = 0
KME1 112007Z 02010KT 16/M04 A302 RMK A01 T01581040  RH  025%=      5-min Rain = 0
KME1 112008Z 01012KT 16/M04 A302 RMK A01 T01611038  RH  025%=      5-min Rain = 0
KME1 112009Z 01012KT 16/M04 A302 RMK A01 T01631039  RH  025%=      5-min Rain = 0
KME1 112010Z 02014KT 16/M04 A3021 RMK A01 T01641042  RH  024%=      5-min Rain = 0
KME1 112011Z 03015G20KT 16/M05 A3021 RMK A01 T01631047  RH  023%=      5-min Rain = 0
KME1 112012Z 03014KT 16/M05 A3021 RMK A01 T01621049  RH  023%=      5-min Rain = 0
KME1 112013Z 03012KT 16/M05 A3021 RMK A01 T01621046  RH  024%=      5-min Rain = 0
KME1 112014Z 03016KT 16/M04 A3021 RMK A01 T01631043  RH  024%=      5-min Rain = 0
KME1 112015Z 03015KT 16/M05 A3021 RMK A01 T01631045  RH  024%=      5-min Rain = 0
KME1 112016Z 02012KT 16/M04 A3021 RMK A01 T01621044  RH  024%=      5-min Rain = 0
KME1 112017Z 02015KT 16/M04 A3021 RMK A01 T01631043  RH  024%=      5-min Rain = 0
KME1 112018Z 02013KT 16/M05 A3021 RMK A01 T01631045  RH  024%=      5-min Rain = 0
KME1 112019Z 01012KT 16/M05 A3021 RMK A01 T01621046  RH  024%=      5-min Rain = 0
KME1 112020Z 01011KT 16/M05 A3021 RMK A01 T01631045  RH  024%=      5-min Rain = 0
KME1 112021Z 02014KT 17/M04 A3021 RMK A01 T01651044  RH  023%=      5-min Rain = 0
KME1 112022Z 02013KT 17/M05 A3021 RMK A01 T01661047  RH  023%=      5-min Rain = 0
KME1 112023Z 02015KT 17/M05 A3021 RMK A01 T01651047  RH  023%=      5-min Rain = 0
KME1 112024Z 03011KT 16/M05 A3021 RMK A01 T01641045  RH  023%=      5-min Rain = 0
KME1 112025Z 01012KT 17/M05 A3021 RMK A01 T01651045  RH  023%=      5-min Rain = 0
KME1 112026Z 01015KT 17/M05 A3021 RMK A01 T01651047  RH  023%=      5-min Rain = 0
KME1 112027Z 01013KT 16/M05 A302 RMK A01 T01631051  RH  023%=      5-min Rain = 0
KME1 112028Z 02015KT 16/M05 A302 RMK A01 T01621049  RH  023%=      5-min Rain = 0
KME1 112029Z 03013KT 16/M05 A302 RMK A01 T01611049  RH  023%=      5-min Rain = 0
KME1 112030Z 02014KT 16/M05 A302 RMK A01 T01611047  RH  024%=      5-min Rain = 0
KME1 112031Z 01014KT 16/M05 A302 RMK A01 T01611046  RH  024%=      5-min Rain = 0
KME1 112032Z 01015KT 16/M05 A302 RMK A01 T01611047  RH  024%=      5-min Rain = 0
KME1 112033Z 01016G21KT 16/M05 A302 RMK A01 T01611049  RH  023%=      5-min Rain = 0
KME1 112034Z 03013KT 16/M05 A302 RMK A01 T01601048  RH  024%=      5-min Rain = 0
KME1 112035Z 02012KT 16/M05 A302 RMK A01 T01601050  RH  023%=      5-min Rain = 0
KME1 112036Z 03017G22KT 16/M05 A3021 RMK A01 T01611054  RH  022%=      5-min Rain = 0
KME1 112037Z 02016KT 16/M07 A3021 RMK A01 T01621067  RH  020%=      5-min Rain = 0
KME1 112038Z 03013KT 16/M07 A3021 RMK A01 T01611074  RH  019%=      5-min Rain = 0
KME1 112039Z 03014KT 16/M07 A3021 RMK A01 T01591072  RH  020%=      5-min Rain = 0
KME1 112040Z 02011KT 16/M07 A3021 RMK A01 T01581074  RH  020%=      5-min Rain = 0
KME1 112041Z 01012G18KT 16/M08 A3021 RMK A01 T01591076  RH  019%=      5-min Rain = 0
KME1 112042Z 01013KT 16/M07 A3021 RMK A01 T01601074  RH  019%=      5-min Rain = 0
KME1 112043Z 02013KT 16/M07 A3021 RMK A01 T01611072  RH  020%=      5-min Rain = 0
KME1 112044Z 01013KT 16/M06 A3022 RMK A01 T01631064  RH  021%=      5-min Rain = 0
KME1 112045Z 02010KT 16/M06 A3022 RMK A01 T01641062  RH  021%=      5-min Rain = 0
KME1 112046Z 01012KT 16/M07 A3022 RMK A01 T01641066  RH  020%=      5-min Rain = 0
KME1 112047Z 03012KT 17/M06 A3022 RMK A01 T01651061  RH  021%=      5-min Rain = 0
KME1 112048Z 02008KT 17/M06 A3022 RMK A01 T01651058  RH  021%=      5-min Rain = 0
KME1 112049Z 02010KT 16/M06 A3022 RMK A01 T01641056  RH  022%=      5-min Rain = 0
KME1 112050Z 01015KT 16/M06 A3022 RMK A01 T01631055  RH  022%=      5-min Rain = 0
KME1 112051Z 01015KT 16/M06 A3022 RMK A01 T01621055  RH  022%=      5-min Rain = 0
KME1 112052Z 01015KT 16/M06 A3022 RMK A01 T01601055  RH  022%=      5-min Rain = 0
KME1 112053Z 01013KT 16/M05 A3022 RMK A01 T01591052  RH  023%=      5-min Rain = 0
KME1 112054Z 02012G17KT 16/M05 A3022 RMK A01 T01591051  RH  023%=      5-min Rain = 0
KME1 112055Z 02012G17KT 16/M05 A3022 RMK A01 T01591049  RH  024%=      5-min Rain = 0
KME1 112056Z 01014KT 16/M05 A3022 RMK A01 T01601049  RH  023%=      5-min Rain = 0
KME1 112057Z 01012KT 16/M05 A3022 RMK A01 T01591052  RH  023%=      5-min Rain = 0
KME1 112058Z 01011KT 16/M05 A3022 RMK A01 T01581054  RH  023%=      5-min Rain = 0
KME1 112059Z 35014KT 16/M05 A3022 RMK A01 T01591053  RH  023%=      5-min Rain = 0
KME1 112100Z 35016KT 16/M06 A3022 RMK A01 T01601055  RH  022%=      5-min Rain = 0
KME1 112101Z 36016KT 16/M05 A3022 RMK A01 T01601053  RH  023%=      5-min Rain = 0
KME1 112102Z 00016KT 16/M05 A3022 RMK A01 T01601052  RH  023%=      5-min Rain = 0
KME1 112103Z 01013KT 16/M05 A3022 RMK A01 T01591052  RH  023%=      5-min Rain = 0
KME1 112104Z 01012KT 16/M05 A3022 RMK A01 T01591049  RH  023%=      5-min Rain = 0
KME1 112105Z 01010KT 16/M05 A3022 RMK A01 T01591050  RH  023%=      5-min Rain = 0
KME1 112106Z 01013KT 16/M05 A3022 RMK A01 T01591054  RH  023%=      5-min Rain = 0
KME1 112107Z 01018G23KT 16/M06 A3022 RMK A01 T01591057  RH  022%=      5-min Rain = 0
KME1 112108Z 02016KT 16/M06 A3022 RMK A01 T01591060  RH  022%=      5-min Rain = 0
KME1 112109Z 01017KT 16/M07 A3022 RMK A01 T01591066  RH  021%=      5-min Rain = 0
KME1 112110Z 01017KT 16/M07 A3022 RMK A01 T01591073  RH  020%=      5-min Rain = 0
KME1 112111Z 01019KT 16/M08 A3022 RMK A01 T01591078  RH  019%=      5-min Rain = 0
KME1 112112Z 02017G22KT 16/M08 A3022 RMK A01 T01581081  RH  019%=      5-min Rain = 0
KME1 112113Z 02015KT 16/M08 A3022 RMK A01 T01571081  RH  019%=      5-min Rain = 0
KME1 112114Z 04015KT 16/M08 A3022 RMK A01 T01561078  RH  019%=      5-min Rain = 0
KME1 112115Z 03014KT 16/M08 A3022 RMK A01 T01561075  RH  020%=      5-min Rain = 0
KME1 112116Z 04012KT 16/M07 A3022 RMK A01 T01561072  RH  020%=      5-min Rain = 0
KME1 112117Z 02013KT 16/M07 A3022 RMK A01 T01571068  RH  021%=      5-min Rain = 0
KME1 112118Z 01016KT 16/M07 A3022 RMK A01 T01581065  RH  021%=      5-min Rain = 0
KME1 112119Z 01012KT 16/M07 A3021 RMK A01 T01581065  RH  021%=      5-min Rain = 0
KME1 112120Z 01013KT 16/M06 A3021 RMK A01 T01581063  RH  021%=      5-min Rain = 0
KME1 112121Z 03008KT 16/M06 A3021 RMK A01 T01581061  RH  022%=      5-min Rain = 0
KME1 112122Z 02012G17KT 16/M06 A3021 RMK A01 T01621058  RH  022%=      5-min Rain = 0
KME1 112123Z 03013KT 16/M06 A3021 RMK A01 T01641059  RH  021%=      5-min Rain = 0
KME1 112124Z 05012KT 17/M06 A3021 RMK A01 T01651060  RH  021%=      5-min Rain = 0
KME1 112125Z 04011KT 16/M06 A3021 RMK A01 T01641061  RH  021%=      5-min Rain = 0
KME1 112126Z 02012KT 17/M06 A3021 RMK A01 T01651059  RH  021%=      5-min Rain = 0
KME1 112127Z 02011KT 17/M06 A3021 RMK A01 T01651057  RH  021%=      5-min Rain = 0
KME1 112128Z 01011KT 17/M06 A3021 RMK A01 T01661057  RH  021%=      5-min Rain = 0
KME1 112129Z 04012KT 16/M06 A3021 RMK A01 T01631059  RH  021%=      5-min Rain = 0
KME1 112130Z 03010KT 16/M06 A3021 RMK A01 T01611057  RH  022%=      5-min Rain = 0
KME1 112131Z 01013KT 16/M05 A3022 RMK A01 T01611054  RH  022%=      5-min Rain = 0
KME1 112132Z 01011KT 16/M05 A3022 RMK A01 T01591054  RH  023%=      5-min Rain = 0
KME1 112133Z 01010KT 16/M05 A3021 RMK A01 T01561054  RH  023%=      5-min Rain = 0
KME1 112134Z 01007KT 16/M05 A3021 RMK A01 T01551052  RH  024%=      5-min Rain = 0
KME1 112135Z 02007KT 16/M05 A3021 RMK A01 T01571049  RH  024%=      5-min Rain = 0
KME1 112136Z 03011KT 16/M05 A3021 RMK A01 T01581050  RH  023%=      5-min Rain = 0
KME1 112137Z 02014KT 16/M05 A3021 RMK A01 T01581052  RH  023%=      5-min Rain = 0
KME1 112138Z 01011KT 16/M05 A3021 RMK A01 T01571051  RH  023%=      5-min Rain = 0
KME1 112139Z 01013KT 16/M05 A3021 RMK A01 T01581050  RH  024%=      5-min Rain = 0
KME1 112140Z 36011KT 16/M05 A3021 RMK A01 T01571050  RH  024%=      5-min Rain = 0
KME1 112141Z 00009KT 16/M05 A3021 RMK A01 T01561051  RH  024%=      5-min Rain = 0
KME1 112142Z 36008KT 16/M05 A3021 RMK A01 T01561049  RH  024%=      5-min Rain = 0
KME1 112143Z 35010G15KT 16/M05 A3021 RMK A01 T01581048  RH  024%=      5-min Rain = 0
KME1 112144Z 34011KT 16/M05 A3021 RMK A01 T01591047  RH  024%=      5-min Rain = 0
KME1 112145Z 34011KT 16/M05 A3021 RMK A01 T01591047  RH  024%=      5-min Rain = 0
KME1 112146Z 34009KT 16/M05 A3021 RMK A01 T01591049  RH  024%=      5-min Rain = 0
KME1 112147Z 00007KT 16/M05 A3021 RMK A01 T01571049  RH  024%=      5-min Rain = 0
KME1 112148Z 01008G14KT 16/M05 A3021 RMK A01 T01581048  RH  024%=      5-min Rain = 0
KME1 112149Z 00013KT 16/M05 A3021 RMK A01 T01601047  RH  024%=      5-min Rain = 0
KME1 112150Z 02014KT 16/M05 A3021 RMK A01 T01591047  RH  024%=      5-min Rain = 0
KME1 112151Z 01013KT 16/M05 A3021 RMK A01 T01581047  RH  024%=      5-min Rain = 0
KME1 112152Z 01013KT 16/M05 A3021 RMK A01 T01571047  RH  024%=      5-min Rain = 0
KME1 112153Z 02010KT 16/M05 A3021 RMK A01 T01571047  RH  024%=      5-min Rain = 0
KME1 112154Z 01010G15KT 16/M05 A3021 RMK A01 T01591045  RH  024%=      5-min Rain = 0
KME1 112155Z 35013KT 16/M05 A302 RMK A01 T01611045  RH  024%=      5-min Rain = 0
KME1 112156Z 35011KT 16/M05 A302 RMK A01 T01601046  RH  024%=      5-min Rain = 0
KME1 112157Z 35011KT 16/M05 A302 RMK A01 T01581047  RH  024%=      5-min Rain = 0
KME1 112158Z 36010KT 16/M05 A302 RMK A01 T01581047  RH  024%=      5-min Rain = 0
KME1 112159Z 36014KT 16/M05 A302 RMK A01 T01581046  RH  024%=      5-min Rain = 0
KME1 112200Z 35015KT 16/M05 A302 RMK A01 T01581046  RH  024%=      5-min Rain = 0
KME1 112201Z 36015KT 16/M05 A302 RMK A01 T01581047  RH  024%=      5-min Rain = 0
KME1 112202Z 02011KT 16/M05 A302 RMK A01 T01581046  RH  024%=      5-min Rain = 0
KME1 112203Z 01010KT 16/M04 A302 RMK A01 T01621042  RH  024%=      5-min Rain = 0
KME1 112204Z 02012KT 16/M04 A302 RMK A01 T01641043  RH  024%=      5-min Rain = 0
KME1 112205Z 01011KT 16/M04 A302 RMK A01 T01631043  RH  024%=      5-min Rain = 0
KME1 112206Z 02013KT 16/M04 A302 RMK A01 T01621043  RH  024%=      5-min Rain = 0
KME1 112207Z 02013KT 16/M04 A302 RMK A01 T01611043  RH  024%=      5-min Rain = 0
KME1 112208Z 01012KT 16/M04 A302 RMK A01 T01611042  RH  024%=      5-min Rain = 0
KME1 112209Z 01012KT 16/M04 A302 RMK A01 T01631043  RH  024%=      5-min Rain = 0
KME1 112210Z 02012KT 16/M05 A302 RMK A01 T01641046  RH  023%=      5-min Rain = 0
KME1 112211Z 00011KT 16/M05 A302 RMK A01 T01631047  RH  023%=      5-min Rain = 0
KME1 112212Z 00011KT 16/M05 A302 RMK A01 T01631046  RH  023%=      5-min Rain = 0
KME1 112213Z 01012G17KT 16/M05 A3021 RMK A01 T01631049  RH  023%=      5-min Rain = 0
KME1 112214Z 01013G18KT 16/M05 A3021 RMK A01 T01611052  RH  023%=      5-min Rain = 0
KME1 112215Z 01013G18KT 16/M06 A3021 RMK A01 T01601056  RH  022%=      5-min Rain = 0
KME1 112216Z 01013KT 16/M06 A3021 RMK A01 T01571059  RH  022%=      5-min Rain = 0
KME1 112217Z 00012KT 16/M06 A3021 RMK A01 T01551060  RH  022%=      5-min Rain = 0
KME1 112218Z 01013KT 15/M06 A3021 RMK A01 T01541061  RH  022%=      5-min Rain = 0
KME1 112219Z 01014KT 15/M06 A3021 RMK A01 T01531059  RH  023%=      5-min Rain = 0
KME1 112220Z 02014KT 15/M06 A3021 RMK A01 T01521059  RH  023%=      5-min Rain = 0
KME1 112221Z 02012KT 15/M06 A3021 RMK A01 T01511057  RH  023%=      5-min Rain = 0
KME1 112222Z 02012KT 15/M06 A3021 RMK A01 T01511056  RH  024%=      5-min Rain = 0
KME1 112223Z 02010KT 15/M06 A3021 RMK A01 T01511055  RH  024%=      5-min Rain = 0
KME1 112224Z 02013KT 15/M05 A3021 RMK A01 T01521054  RH  024%=      5-min Rain = 0
KME1 112225Z 01013KT 15/M05 A3021 RMK A01 T01511054  RH  024%=      5-min Rain = 0
KME1 112226Z 01012KT 15/M06 A3021 RMK A01 T01501055  RH  024%=      5-min Rain = 0
KME1 112227Z 01013KT 15/M06 A3021 RMK A01 T01511057  RH  023%=      5-min Rain = 0
KME1 112228Z 01011KT 15/M06 A3021 RMK A01 T01511057  RH  023%=      5-min Rain = 0
KME1 112229Z 01012KT 15/M06 A3021 RMK A01 T01511058  RH  023%=      5-min Rain = 0
KME1 112230Z 02011KT 15/M06 A3021 RMK A01 T01511058  RH  023%=      5-min Rain = 0
KME1 112231Z 02014KT 15/M06 A3021 RMK A01 T01511058  RH  023%=      5-min Rain = 0
KME1 112232Z 01014KT 15/M06 A3021 RMK A01 T01521058  RH  023%=      5-min Rain = 0
KME1 112233Z 01014KT 15/M06 A3021 RMK A01 T01521059  RH  023%=      5-min Rain = 0
KME1 112234Z 00012KT 15/M06 A3021 RMK A01 T01521059  RH  023%=      5-min Rain = 0
KME1 112235Z 00014KT 15/M06 A3021 RMK A01 T01521060  RH  023%=      5-min Rain = 0
KME1 112236Z 00011KT 15/M06 A3021 RMK A01 T01511060  RH  023%=      5-min Rain = 0
KME1 112237Z 00013KT 15/M06 A3021 RMK A01 T01511060  RH  023%=      5-min Rain = 0
KME1 112238Z 01014KT 15/M06 A3021 RMK A01 T01511061  RH  023%=      5-min Rain = 0
KME1 112239Z 01014KT 15/M06 A3021 RMK A01 T01501062  RH  023%=      5-min Rain = 0
KME1 112240Z 00013KT 15/M06 A3021 RMK A01 T01501062  RH  023%=      5-min Rain = 0
KME1 112241Z 00013KT 15/M06 A3021 RMK A01 T01501062  RH  023%=      5-min Rain = 0
KME1 112242Z 36012KT 15/M06 A3021 RMK A01 T01501062  RH  023%=      5-min Rain = 0
KME1 112243Z 36012KT 15/M06 A3021 RMK A01 T01511062  RH  022%=      5-min Rain = 0
KME1 112244Z 00011KT 15/M06 A3021 RMK A01 T01521061  RH  022%=      5-min Rain = 0
KME1 112245Z 01009KT 15/M06 A3021 RMK A01 T01531061  RH  022%=      5-min Rain = 0
KME1 112246Z 03013KT 15/M06 A3022 RMK A01 T01541061  RH  022%=      5-min Rain = 0
KME1 112247Z 02013KT 15/M07 A3022 RMK A01 T01541065  RH  022%=      5-min Rain = 0
KME1 112248Z 02014KT 15/M07 A3022 RMK A01 T01531065  RH  022%=      5-min Rain = 0
KME1 112249Z 01014KT 15/M07 A3022 RMK A01 T01521066  RH  022%=      5-min Rain = 0
KME1 112250Z 01014KT 15/M07 A3022 RMK A01 T01511068  RH  022%=      5-min Rain = 0
KME1 112251Z 01010KT 15/M07 A3022 RMK A01 T01511067  RH  022%=      5-min Rain = 0
KME1 112252Z 01011KT 15/M07 A3022 RMK A01 T01511067  RH  022%=      5-min Rain = 0
KME1 112253Z 02011KT 15/M07 A3022 RMK A01 T01521068  RH  021%=      5-min Rain = 0
KME1 112254Z 02015KT 15/M07 A3022 RMK A01 T01531068  RH  021%=      5-min Rain = 0
KME1 112255Z 02012KT 15/M07 A3022 RMK A01 T01531071  RH  021%=      5-min Rain = 0
KME1 112256Z 02014KT 15/M07 A3022 RMK A01 T01531071  RH  021%=      5-min Rain = 0
KME1 112257Z 02016KT 15/M07 A3022 RMK A01 T01541074  RH  020%=      5-min Rain = 0
KME1 112258Z 01014KT 15/M08 A3022 RMK A01 T01541076  RH  020%=      5-min Rain = 0
KME1 112259Z 01016KT 15/M08 A3022 RMK A01 T01531077  RH  020%=      5-min Rain = 0
KME1 112300Z 02013KT 15/M08 A3022 RMK A01 T01531077  RH  020%=      5-min Rain = 0
KME1 112301Z 02011KT 15/M08 A3022 RMK A01 T01531078  RH  020%=      5-min Rain = 0
KME1 112302Z 02012KT 15/M08 A3022 RMK A01 T01521075  RH  020%=      5-min Rain = 0
KME1 112303Z 02011KT 15/M07 A3022 RMK A01 T01531074  RH  020%=      5-min Rain = 0
KME1 112304Z 02012KT 15/M07 A3022 RMK A01 T01531073  RH  020%=      5-min Rain = 0
KME1 112305Z 36009KT 15/M07 A3022 RMK A01 T01531071  RH  021%=      5-min Rain = 0
KME1 112306Z 01010KT 16/M07 A3022 RMK A01 T01551069  RH  021%=      5-min Rain = 0
KME1 112307Z 02011KT 16/M07 A3022 RMK A01 T01551069  RH  021%=      5-min Rain = 0
KME1 112308Z 02013KT 16/M07 A3022 RMK A01 T01551071  RH  020%=      5-min Rain = 0
KME1 112309Z 03011KT 15/M07 A3022 RMK A01 T01531072  RH  020%=      5-min Rain = 0
KME1 112310Z 03011KT 15/M07 A3022 RMK A01 T01521071  RH  021%=      5-min Rain = 0
KME1 112311Z 01009KT 15/M07 A3022 RMK A01 T01521069  RH  021%=      5-min Rain = 0
KME1 112312Z 01011KT 15/M07 A3022 RMK A01 T01531067  RH  021%=      5-min Rain = 0
KME1 112313Z 02010KT 15/M07 A3022 RMK A01 T01531068  RH  021%=      5-min Rain = 0
KME1 112314Z 02011KT 15/M07 A3022 RMK A01 T01521067  RH  021%=      5-min Rain = 0
KME1 112315Z 01010KT 15/M07 A3022 RMK A01 T01531067  RH  021%=      5-min Rain = 0
KME1 112316Z 36010KT 15/M07 A3022 RMK A01 T01521068  RH  021%=      5-min Rain = 0
KME1 112317Z 01013KT 15/M07 A3022 RMK A01 T01531070  RH  021%=      5-min Rain = 0
KME1 112318Z 01010KT 15/M07 A3022 RMK A01 T01521074  RH  020%=      5-min Rain = 0
KME1 112319Z 00009KT 15/M08 A3022 RMK A01 T01501075  RH  020%=      5-min Rain = 0
KME1 112320Z 00008KT 15/M08 A3022 RMK A01 T01501075  RH  020%=      5-min Rain = 0
KME1 112321Z 01010KT 15/M07 A3022 RMK A01 T01511074  RH  020%=      5-min Rain = 0
KME1 112322Z 02010KT 15/M07 A3022 RMK A01 T01521074  RH  020%=      5-min Rain = 0
KME1 112323Z 01009KT 15/M07 A3022 RMK A01 T01521073  RH  020%=      5-min Rain = 0
KME1 112324Z 00011KT 15/M08 A3022 RMK A01 T01521076  RH  020%=      5-min Rain = 0
KME1 112325Z 00012KT 15/M08 A3022 RMK A01 T01531078  RH  020%=      5-min Rain = 0
KME1 112326Z 01014KT 15/M08 A3022 RMK A01 T01541078  RH  020%=      5-min Rain = 0
KME1 112327Z 02012KT 16/M08 A3022 RMK A01 T01551078  RH  019%=      5-min Rain = 0
KME1 112328Z 02015KT 16/M08 A3022 RMK A01 T01561077  RH  019%=      5-min Rain = 0
KME1 112329Z 02014KT 16/M08 A3022 RMK A01 T01551079  RH  019%=      5-min Rain = 0
KME1 112330Z 02011KT 15/M08 A3022 RMK A01 T01541079  RH  019%=      5-min Rain = 0
KME1 112331Z 02012KT 15/M08 A3022 RMK A01 T01531079  RH  019%=      5-min Rain = 0
KME1 112332Z 01011KT 15/M08 A3022 RMK A01 T01541078  RH  019%=      5-min Rain = 0
KME1 112333Z 02011KT 16/M08 A3023 RMK A01 T01551080  RH  019%=      5-min Rain = 0
KME1 112334Z 01015G21KT 16/M08 A3023 RMK A01 T01561080  RH  019%=      5-min Rain = 0
KME1 112335Z 02012KT 15/M08 A3023 RMK A01 T01541082  RH  019%=      5-min Rain = 0
KME1 112336Z 02011KT 15/M08 A3023 RMK A01 T01541083  RH  019%=      5-min Rain = 0
KME1 112337Z 03013KT 15/M08 A3023 RMK A01 T01531084  RH  019%=      5-min Rain = 0
KME1 112338Z 02014KT 15/M09 A3023 RMK A01 T01511086  RH  019%=      5-min Rain = 0
KME1 112339Z 03013KT 15/M09 A3023 RMK A01 T01491088  RH  019%=      5-min Rain = 0
KME1 112340Z 02011KT 15/M09 A3023 RMK A01 T01481088  RH  019%=      5-min Rain = 0
KME1 112341Z 02012KT 15/M09 A3023 RMK A01 T01481087  RH  019%=      5-min Rain = 0
KME1 112342Z 02012KT 15/M09 A3023 RMK A01 T01471088  RH  019%=      5-min Rain = 0
KME1 112343Z 02010KT 15/M09 A3023 RMK A01 T01471088  RH  019%=      5-min Rain = 0
KME1 112344Z 02008KT 15/M09 A3023 RMK A01 T01461087  RH  019%=      5-min Rain = 0
KME1 112345Z 01012KT 15/M09 A3023 RMK A01 T01471086  RH  019%=      5-min Rain = 0
KME1 112346Z 02013KT 15/M09 A3023 RMK A01 T01461088  RH  019%=      5-min Rain = 0
KME1 112347Z 01010KT 15/M09 A3023 RMK A01 T01451089  RH  019%=      5-min Rain = 0
KME1 112348Z 01012KT 14/M09 A3023 RMK A01 T01441088  RH  019%=      5-min Rain = 0
KME1 112349Z 01010KT 14/M09 A3023 RMK A01 T01441088  RH  019%=      5-min Rain = 0
KME1 112350Z 02009KT 15/M09 A3023 RMK A01 T01451086  RH  019%=      5-min Rain = 0
KME1 112351Z 02011KT 14/M09 A3023 RMK A01 T01441086  RH  020%=      5-min Rain = 0
KME1 112352Z 02009KT 14/M09 A3023 RMK A01 T01441087  RH  019%=      5-min Rain = 0
KME1 112353Z 02013G18KT 14/M09 A3023 RMK A01 T01441087  RH  019%=      5-min Rain = 0
KME1 112354Z 02013KT 14/M09 A3023 RMK A01 T01441087  RH  019%=      5-min Rain = 0
KME1 112355Z 02012KT 14/M09 A3023 RMK A01 T01431087  RH  019%=      5-min Rain = 0
KME1 112356Z 03012KT 14/M09 A3023 RMK A01 T01431086  RH  020%=      5-min Rain = 0
KME1 112357Z 03012KT 14/M09 A3023 RMK A01 T01431087  RH  020%=      5-min Rain = 0
KME1 112358Z 00008KT 14/M09 A3023 RMK A01 T01431086  RH  020%=      5-min Rain = 0
KME1 112359Z 01011KT 14/M08 A3023 RMK A01 T01431084  RH  020%=      5-min Rain = 0
KME1 120000Z 01012KT 14/M09 A3023 RMK A01 T01431085  RH  020%=      5-min Rain = 0
KME1 120001Z 01009KT 14/M08 A3023 RMK A01 T01431084  RH  020%=      5-min Rain = 0
KME1 120002Z 01011KT 14/M09 A3023 RMK A01 T01431085  RH  020%=      5-min Rain = 0
KME1 120003Z 01008KT 14/M09 A3023 RMK A01 T01421085  RH  020%=      5-min Rain = 0
KME1 120004Z 02009KT 14/M09 A3023 RMK A01 T01421085  RH  020%=      5-min Rain = 0
KME1 120005Z 01011KT 14/M09 A3024 RMK A01 T01421085  RH  020%=      5-min Rain = 0
KME1 120006Z 02011KT 14/M09 A3024 RMK A01 T01411086  RH  020%=      5-min Rain = 0
KME1 120007Z 02013KT 14/M09 A3024 RMK A01 T01411086  RH  020%=      5-min Rain = 0
KME1 120008Z 02012KT 14/M09 A3024 RMK A01 T01401086  RH  020%=      5-min Rain = 0
KME1 120009Z 02012KT 14/M09 A3024 RMK A01 T01401087  RH  020%=      5-min Rain = 0
KME1 120010Z 02011KT 14/M09 A3024 RMK A01 T01401087  RH  020%=      5-min Rain = 0
KME1 120011Z 01012KT 14/M09 A3024 RMK A01 T01391088  RH  020%=      5-min Rain = 0
KME1 120012Z 01011KT 14/M09 A3024 RMK A01 T01391087  RH  020%=      5-min Rain = 0
KME1 120013Z 01012KT 14/M09 A3024 RMK A01 T01391087  RH  020%=      5-min Rain = 0
KME1 120014Z 01011KT 14/M09 A3024 RMK A01 T01391086  RH  020%=      5-min Rain = 0
KME1 120015Z 02010KT 14/M09 A3024 RMK A01 T01391086  RH  020%=      5-min Rain = 0
KME1 120016Z 02012KT 14/M09 A3024 RMK A01 T01391086  RH  020%=      5-min Rain = 0
KME1 120017Z 03013KT 14/M09 A3024 RMK A01 T01391087  RH  020%=      5-min Rain = 0
KME1 120018Z 02011KT 14/M09 A3024 RMK A01 T01381087  RH  020%=      5-min Rain = 0
KME1 120019Z 02012KT 14/M09 A3024 RMK A01 T01381087  RH  020%=      5-min Rain = 0
KME1 120020Z 02011KT 14/M09 A3024 RMK A01 T01381088  RH  020%=      5-min Rain = 0
KME1 120021Z 02010G15KT 14/M09 A3024 RMK A01 T01381088  RH  020%=      5-min Rain = 0
KME1 120022Z 02011KT 14/M09 A3024 RMK A01 T01371087  RH  020%=      5-min Rain = 0
KME1 120023Z 02010KT 14/M09 A3024 RMK A01 T01371087  RH  020%=      5-min Rain = 0
KME1 120024Z 02009KT 14/M09 A3024 RMK A01 T01371087  RH  020%=      5-min Rain = 0
KME1 120025Z 02009KT 14/M09 A3024 RMK A01 T01371087  RH  020%=      5-min Rain = 0
KME1 120026Z 02009KT 14/M09 A3024 RMK A01 T01361087  RH  020%=      5-min Rain = 0
KME1 120027Z 02007KT 14/M09 A3024 RMK A01 T01371086  RH  020%=      5-min Rain = 0
KME1 120028Z 02007KT 14/M09 A3024 RMK A01 T01361086  RH  021%=      5-min Rain = 0
KME1 120029Z 02007KT 14/M09 A3024 RMK A01 T01351086  RH  021%=      5-min Rain = 0
KME1 120030Z 01007KT 14/M09 A3024 RMK A01 T01351085  RH  021%=      5-min Rain = 0
KME1 120031Z 01008KT 13/M09 A3024 RMK A01 T01341086  RH  021%=      5-min Rain = 0
KME1 120032Z 01007KT 13/M09 A3024 RMK A01 T01341085  RH  021%=      5-min Rain = 0
KME1 120033Z 00007KT 13/M09 A3024 RMK A01 T01331085  RH  021%=      5-min Rain = 0
KME1 120034Z 01009KT 13/M09 A3024 RMK A01 T01321085  RH  021%=      5-min Rain = 0
KME1 120035Z 01008KT 13/M09 A3024 RMK A01 T01321085  RH  021%=      5-min Rain = 0
KME1 120036Z 02007KT 13/M09 A3024 RMK A01 T01321085  RH  021%=      5-min Rain = 0
KME1 120037Z 01006KT 13/M09 A3024 RMK A01 T01321085  RH  021%=      5-min Rain = 0
KME1 120038Z 01005KT 13/M08 A3024 RMK A01 T01321084  RH  021%=      5-min Rain = 0
KME1 120039Z 01006KT 13/M08 A3024 RMK A01 T01311083  RH  022%=      5-min Rain = 0
KME1 120040Z 02006KT 13/M08 A3024 RMK A01 T01301084  RH  022%=      5-min Rain = 0
KME1 120041Z 02006KT 13/M08 A3025 RMK A01 T01301084  RH  022%=      5-min Rain = 0
KME1 120042Z 02007KT 13/M08 A3025 RMK A01 T01301084  RH  022%=      5-min Rain = 0
KME1 120043Z 02006KT 13/M08 A3025 RMK A01 T01301084  RH  022%=      5-min Rain = 0
KME1 120044Z 02005KT 13/M08 A3025 RMK A01 T01311084  RH  022%=      5-min Rain = 0
KME1 120045Z 02006KT 13/M08 A3025 RMK A01 T01301083  RH  022%=      5-min Rain = 0
KME1 120046Z 02007KT 13/M08 A3025 RMK A01 T01301083  RH  022%=      5-min Rain = 0
KME1 120047Z 03006KT 13/M08 A3025 RMK A01 T01301084  RH  022%=      5-min Rain = 0
KME1 120048Z 02007KT 13/M08 A3025 RMK A01 T01301083  RH  022%=      5-min Rain = 0
KME1 120049Z 02007KT 13/M08 A3025 RMK A01 T01301084  RH  022%=      5-min Rain = 0
KME1 120050Z 02007KT 13/M08 A3025 RMK A01 T01301084  RH  022%=      5-min Rain = 0
KME1 120051Z 01007KT 13/M08 A3025 RMK A01 T01301084  RH  022%=      5-min Rain = 0
KME1 120052Z 01005KT 13/M08 A3025 RMK A01 T01301084  RH  022%=      5-min Rain = 0
KME1 120053Z 01007KT 13/M08 A3025 RMK A01 T01301084  RH  022%=      5-min Rain = 0
KME1 120054Z 01005KT 13/M08 A3025 RMK A01 T01301083  RH  022%=      5-min Rain = 0
KME1 120055Z 01006KT 13/M08 A3025 RMK A01 T01291083  RH  022%=      5-min Rain = 0
KME1 120056Z 00007KT 13/M08 A3025 RMK A01 T01291082  RH  022%=      5-min Rain = 0
KME1 120057Z 01010KT 13/M08 A3025 RMK A01 T01281084  RH  022%=      5-min Rain = 0
KME1 120058Z 02009KT 13/M08 A3025 RMK A01 T01301083  RH  022%=      5-min Rain = 0
KME1 120059Z 01008KT 13/M08 A3025 RMK A01 T01311083  RH  022%=      5-min Rain = 0
KME1 120100Z 01009KT 13/M08 A3025 RMK A01 T01311083  RH  022%=      5-min Rain = 0
KME1 120101Z 01010KT 13/M09 A3025 RMK A01 T01311085  RH  021%=      5-min Rain = 0
KME1 120102Z 01006KT 13/M09 A3025 RMK A01 T01321085  RH  021%=      5-min Rain = 0
KME1 120103Z 01008KT 13/M08 A3025 RMK A01 T01331084  RH  021%=      5-min Rain = 0
KME1 120104Z 01009KT 13/M09 A3025 RMK A01 T01321085  RH  021%=      5-min Rain = 0
KME1 120105Z 01008KT 13/M09 A3025 RMK A01 T01321085  RH  021%=      5-min Rain = 0
KME1 120106Z 00008KT 13/M08 A3025 RMK A01 T01331084  RH  021%=      5-min Rain = 0
KME1 120107Z 00008KT 13/M08 A3025 RMK A01 T01331084  RH  021%=      5-min Rain = 0
KME1 120108Z 01009KT 13/M09 A3026 RMK A01 T01331085  RH  021%=      5-min Rain = 0
KME1 120109Z 01009KT 13/M09 A3026 RMK A01 T01331085  RH  021%=      5-min Rain = 0
KME1 120110Z 01009KT 13/M09 A3026 RMK A01 T01331086  RH  021%=      5-min Rain = 0
KME1 120111Z 01008KT 13/M09 A3026 RMK A01 T01331086  RH  021%=      5-min Rain = 0
KME1 120112Z 01009KT 13/M09 A3026 RMK A01 T01331086  RH  021%=      5-min Rain = 0
KME1 120113Z 01008KT 13/M09 A3026 RMK A01 T01341086  RH  021%=      5-min Rain = 0
KME1 120114Z 01010KT 13/M09 A3026 RMK A01 T01331086  RH  021%=      5-min Rain = 0
KME1 120115Z 02010KT 13/M09 A3025 RMK A01 T01331088  RH  021%=      5-min Rain = 0
KME1 120116Z 02009KT 13/M09 A3025 RMK A01 T01331088  RH  021%=      5-min Rain = 0
KME1 120117Z 02008KT 13/M09 A3025 RMK A01 T01331088  RH  021%=      5-min Rain = 0
KME1 120118Z 03010KT 13/M09 A3025 RMK A01 T01331088  RH  021%=      5-min Rain = 0
KME1 120119Z 02010KT 13/M09 A3025 RMK A01 T01331089  RH  020%=      5-min Rain = 0
KME1 120120Z 02008KT 13/M09 A3025 RMK A01 T01331089  RH  021%=      5-min Rain = 0
KME1 120121Z 02008KT 13/M09 A3025 RMK A01 T01331089  RH  021%=      5-min Rain = 0
KME1 120122Z 02010KT 13/M09 A3025 RMK A01 T01321089  RH  021%=      5-min Rain = 0
KME1 120123Z 02008KT 13/M09 A3025 RMK A01 T01321089  RH  021%=      5-min Rain = 0
KME1 120124Z 02008KT 13/M09 A3025 RMK A01 T01321090  RH  021%=      5-min Rain = 0
KME1 120125Z 02007KT 13/M09 A3025 RMK A01 T01321089  RH  021%=      5-min Rain = 0
KME1 120126Z 02007KT 13/M09 A3025 RMK A01 T01321089  RH  021%=      5-min Rain = 0
KME1 120127Z 01008KT 13/M09 A3025 RMK A01 T01311089  RH  021%=      5-min Rain = 0
KME1 120128Z 01007KT 13/M09 A3025 RMK A01 T01311089  RH  021%=      5-min Rain = 0
KME1 120129Z 01007KT 13/M09 A3025 RMK A01 T01311089  RH  021%=      5-min Rain = 0
KME1 120130Z 01006KT 13/M09 A3025 RMK A01 T01301089  RH  021%=      5-min Rain = 0
KME1 120131Z 01007KT 13/M09 A3025 RMK A01 T01301089  RH  021%=      5-min Rain = 0
KME1 120132Z 01007KT 13/M09 A3025 RMK A01 T01301089  RH  021%=      5-min Rain = 0
KME1 120133Z 01007KT 13/M09 A3025 RMK A01 T01301089  RH  021%=      5-min Rain = 0
KME1 120134Z 01007KT 13/M09 A3025 RMK A01 T01291089  RH  021%=      5-min Rain = 0
KME1 120135Z 01006KT 13/M09 A3025 RMK A01 T01291089  RH  021%=      5-min Rain = 0
KME1 120136Z 01007KT 13/M09 A3026 RMK A01 T01281089  RH  021%=      5-min Rain = 0
KME1 120137Z 01005KT 13/M09 A3025 RMK A01 T01281089  RH  021%=      5-min Rain = 0
KME1 120138Z 01006KT 13/M09 A3025 RMK A01 T01271089  RH  021%=      5-min Rain = 0
KME1 120139Z 02005KT 13/M09 A3025 RMK A01 T01261089  RH  021%=      5-min Rain = 0
KME1 120140Z 01006KT 13/M09 A3025 RMK A01 T01251089  RH  022%=      5-min Rain = 0
KME1 120141Z 01006KT 12/M09 A3026 RMK A01 T01231089  RH  022%=      5-min Rain = 0
KME1 120142Z 02007KT 12/M09 A3026 RMK A01 T01231090  RH  022%=      5-min Rain = 0
KME1 120143Z 01007KT 12/M09 A3026 RMK A01 T01231089  RH  022%=      5-min Rain = 0
KME1 120144Z 01006KT 12/M09 A3026 RMK A01 T01231089  RH  022%=      5-min Rain = 0
KME1 120145Z 01007KT 12/M09 A3026 RMK A01 T01221089  RH  022%=      5-min Rain = 0
KME1 120146Z 00006KT 12/M09 A3026 RMK A01 T01221089  RH  022%=      5-min Rain = 0
KME1 120147Z 01006KT 12/M09 A3026 RMK A01 T01211089  RH  022%=      5-min Rain = 0
KME1 120148Z 01006KT 12/M09 A3026 RMK A01 T01201089  RH  022%=      5-min Rain = 0
KME1 120149Z 01006KT 12/M09 A3026 RMK A01 T01191089  RH  023%=      5-min Rain = 0
KME1 120150Z 01006KT 12/M09 A3026 RMK A01 T01181089  RH  023%=      5-min Rain = 0
KME1 120151Z 00006KT 12/M09 A3026 RMK A01 T01171089  RH  023%=      5-min Rain = 0
KME1 120152Z 01005KT 12/M09 A3026 RMK A01 T01161089  RH  023%=      5-min Rain = 0
KME1 120153Z 01005KT 12/M09 A3026 RMK A01 T01161089  RH  023%=      5-min Rain = 0
KME1 120154Z 00005KT 12/M09 A3026 RMK A01 T01151088  RH  023%=      5-min Rain = 0
KME1 120155Z 00005KT 11/M09 A3026 RMK A01 T01141088  RH  023%=      5-min Rain = 0
KME1 120156Z 00005KT 11/M09 A3026 RMK A01 T01131088  RH  023%=      5-min Rain = 0
KME1 120157Z 00005KT 11/M09 A3026 RMK A01 T01131088  RH  024%=      5-min Rain = 0
KME1 120158Z 36005KT 11/M09 A3027 RMK A01 T01121088  RH  024%=      5-min Rain = 0
KME1 120159Z 00005KT 11/M09 A3027 RMK A01 T01121087  RH  024%=      5-min Rain = 0
KME1 120200Z 35005KT 11/M09 A3027 RMK A01 T01111087  RH  024%=      5-min Rain = 0
KME1 120201Z 36005KT 11/M09 A3027 RMK A01 T01101087  RH  024%=      5-min Rain = 0
KME1 120202Z 35005KT 11/M09 A3027 RMK A01 T01101086  RH  024%=      5-min Rain = 0
KME1 120203Z 35005KT 11/M09 A3027 RMK A01 T01081086  RH  025%=      5-min Rain = 0
KME1 120204Z 35005KT 11/M09 A3027 RMK A01 T01081086  RH  025%=      5-min Rain = 0
KME1 120205Z 35005KT 11/M09 A3027 RMK A01 T01081086  RH  025%=      5-min Rain = 0
KME1 120206Z 35005KT 11/M09 A3027 RMK A01 T01071086  RH  025%=      5-min Rain = 0
KME1 120207Z 35005KT 11/M09 A3027 RMK A01 T01071086  RH  025%=      5-min Rain = 0
KME1 120208Z 35005KT 11/M09 A3027 RMK A01 T01071086  RH  025%=      5-min Rain = 0
KME1 120209Z 35005KT 11/M09 A3027 RMK A01 T01061085  RH  025%=      5-min Rain = 0
KME1 120210Z 35006KT 11/M09 A3027 RMK A01 T01061086  RH  025%=      5-min Rain = 0
KME1 120211Z 35006KT 11/M09 A3027 RMK A01 T01051086  RH  025%=      5-min Rain = 0
KME1 120212Z 34006KT 11/M09 A3027 RMK A01 T01051086  RH  025%=      5-min Rain = 0
KME1 120213Z 34006KT 11/M09 A3027 RMK A01 T01051085  RH  025%=      5-min Rain = 0
KME1 120214Z 34006KT 11/M09 A3027 RMK A01 T01051085  RH  026%=      5-min Rain = 0
KME1 120215Z 34006KT 10/M09 A3027 RMK A01 T01041085  RH  026%=      5-min Rain = 0
KME1 120216Z 35006KT 10/M09 A3027 RMK A01 T01031085  RH  026%=      5-min Rain = 0
KME1 120217Z 35006KT 10/M08 A3027 RMK A01 T01031084  RH  026%=      5-min Rain = 0
KME1 120218Z 35007KT 10/M08 A3028 RMK A01 T01021084  RH  026%=      5-min Rain = 0
KME1 120219Z 35007KT 10/M08 A3028 RMK A01 T01021084  RH  026%=      5-min Rain = 0
KME1 120220Z 36006KT 10/M08 A3028 RMK A01 T01021083  RH  026%=      5-min Rain = 0
KME1 120221Z 36007KT 10/M08 A3028 RMK A01 T01021083  RH  026%=      5-min Rain = 0
KME1 120222Z 00006KT 10/M08 A3028 RMK A01 T01011083  RH  027%=      5-min Rain = 0
KME1 120223Z 36006KT 10/M08 A3028 RMK A01 T01021082  RH  027%=      5-min Rain = 0
KME1 120224Z 01007KT 10/M08 A3028 RMK A01 T01021082  RH  026%=      5-min Rain = 0
KME1 120225Z 01006KT 10/M08 A3028 RMK A01 T01031083  RH  026%=      5-min Rain = 0
KME1 120226Z 01006KT 10/M08 A3028 RMK A01 T01041082  RH  026%=      5-min Rain = 0
KME1 120227Z 01005KT 11/M08 A3028 RMK A01 T01051082  RH  026%=      5-min Rain = 0
KME1 120228Z 01006KT 11/M08 A3028 RMK A01 T01051082  RH  026%=      5-min Rain = 0
KME1 120229Z 01006KT 11/M08 A3028 RMK A01 T01061082  RH  026%=      5-min Rain = 0
KME1 120230Z 00006KT 11/M08 A3028 RMK A01 T01061082  RH  026%=      5-min Rain = 0
KME1 120231Z 00006KT 11/M08 A3028 RMK A01 T01061082  RH  026%=      5-min Rain = 0
KME1 120232Z 00007KT 11/M08 A3028 RMK A01 T01071082  RH  026%=      5-min Rain = 0
KME1 120233Z 00007KT 11/M08 A3028 RMK A01 T01071082  RH  026%=      5-min Rain = 0
KME1 120234Z 00007KT 11/M08 A3028 RMK A01 T01071082  RH  026%=      5-min Rain = 0
KME1 120235Z 00007KT 11/M08 A3028 RMK A01 T01081082  RH  026%=      5-min Rain = 0
KME1 120236Z 01007KT 11/M08 A3028 RMK A01 T01081083  RH  025%=      5-min Rain = 0
KME1 120237Z 01008KT 11/M08 A3028 RMK A01 T01091082  RH  025%=      5-min Rain = 0
KME1 120238Z 01007KT 11/M08 A3028 RMK A01 T01101083  RH  025%=      5-min Rain = 0
KME1 120239Z 01006KT 11/M08 A3028 RMK A01 T01101083  RH  025%=      5-min Rain = 0
KME1 120240Z 01007KT 11/M08 A3028 RMK A01 T01101083  RH  025%=      5-min Rain = 0
KME1 120241Z 01007KT 11/M08 A3028 RMK A01 T01101083  RH  025%=      5-min Rain = 0
KME1 120242Z 01007KT 11/M08 A3028 RMK A01 T01101083  RH  025%=      5-min Rain = 0
KME1 120243Z 01006KT 11/M08 A3028 RMK A01 T01101083  RH  025%=      5-min Rain = 0
KME1 120244Z 01006KT 11/M08 A3028 RMK A01 T01101083  RH  025%=      5-min Rain = 0
KME1 120245Z 01006KT 11/M08 A3028 RMK A01 T01101082  RH  025%=      5-min Rain = 0
KME1 120246Z 01007KT 11/M08 A3028 RMK A01 T01101083  RH  025%=      5-min Rain = 0
KME1 120247Z 01006KT 11/M08 A3028 RMK A01 T01101083  RH  025%=      5-min Rain = 0
KME1 120248Z 01007KT 11/M08 A3029 RMK A01 T01101083  RH  025%=      5-min Rain = 0
KME1 120249Z 01006KT 11/M08 A3029 RMK A01 T01101083  RH  025%=      5-min Rain = 0
KME1 120250Z 01006KT 11/M08 A3029 RMK A01 T01101082  RH  025%=      5-min Rain = 0
KME1 120251Z 01006KT 11/M08 A3029 RMK A01 T01101082  RH  025%=      5-min Rain = 0
KME1 120252Z 01006KT 11/M08 A3029 RMK A01 T01101082  RH  025%=      5-min Rain = 0
KME1 120253Z 01006KT 11/M08 A3029 RMK A01 T01101082  RH  025%=      5-min Rain = 0
KME1 120254Z 01005KT 11/M08 A3029 RMK A01 T01101081  RH  025%=      5-min Rain = 0
KME1 120255Z 01006KT 11/M08 A3029 RMK A01 T01091082  RH  025%=      5-min Rain = 0
KME1 120256Z 01006KT 11/M08 A3029 RMK A01 T01091082  RH  025%=      5-min Rain = 0
KME1 120257Z 01006KT 11/M08 A3029 RMK A01 T01091082  RH  025%=      5-min Rain = 0
KME1 120258Z 01005KT 11/M08 A3029 RMK A01 T01091082  RH  025%=      5-min Rain = 0
KME1 120259Z 01005KT 11/M08 A3029 RMK A01 T01091082  RH  025%=      5-min Rain = 0
KME1 120300Z 01005KT 11/M08 A3029 RMK A01 T01091082  RH  025%=      5-min Rain = 0
KME1 120301Z 01005KT 11/M08 A3029 RMK A01 T01091081  RH  025%=      5-min Rain = 0
KME1 120302Z 01005KT 11/M08 A3029 RMK A01 T01091082  RH  025%=      5-min Rain = 0
KME1 120303Z 01006KT 11/M08 A3029 RMK A01 T01081082  RH  025%=      5-min Rain = 0
KME1 120304Z 01005KT 11/M08 A3029 RMK A01 T01081082  RH  026%=      5-min Rain = 0
KME1 120305Z 01005KT 11/M08 A3029 RMK A01 T01081082  RH  026%=      5-min Rain = 0
KME1 120306Z 01005KT 11/M08 A3029 RMK A01 T01081082  RH  026%=      5-min Rain = 0
KME1 120307Z 01005KT 11/M08 A3029 RMK A01 T01081082  RH  026%=      5-min Rain = 0
KME1 120308Z 01004KT 11/M08 A303 RMK A01 T01081082  RH  025%=      5-min Rain = 0
KME1 120309Z 01005KT 11/M08 A303 RMK A01 T01091082  RH  025%=      5-min Rain = 0
KME1 120310Z 01004KT 11/M08 A303 RMK A01 T01091082  RH  025%=      5-min Rain = 0
KME1 120311Z 01004KT 11/M08 A303 RMK A01 T01081081  RH  026%=      5-min Rain = 0
KME1 120312Z 01004KT 11/M08 A303 RMK A01 T01081082  RH  026%=      5-min Rain = 0
KME1 120313Z 01004KT 11/M08 A303 RMK A01 T01081082  RH  026%=      5-min Rain = 0
KME1 120314Z 01004KT 11/M08 A303 RMK A01 T01091081  RH  026%=      5-min Rain = 0
KME1 120315Z 01004KT 11/M08 A303 RMK A01 T01081081  RH  026%=      5-min Rain = 0
KME1 120316Z 01003KT 11/M08 A303 RMK A01 T01081081  RH  026%=      5-min Rain = 0
KME1 120317Z 01003KT 11/M08 A303 RMK A01 T01081081  RH  026%=      5-min Rain = 0
KME1 120318Z 00003KT 11/M08 A303 RMK A01 T01071081  RH  026%=      5-min Rain = 0
KME1 120319Z 36004KT 11/M08 A303 RMK A01 T01071082  RH  026%=      5-min Rain = 0
KME1 120320Z 36003KT 11/M08 A303 RMK A01 T01071081  RH  026%=      5-min Rain = 0
KME1 120321Z 00004KT 11/M08 A303 RMK A01 T01071080  RH  026%=      5-min Rain = 0
KME1 120322Z 36004KT 11/M08 A3031 RMK A01 T01071080  RH  026%=      5-min Rain = 0
KME1 120323Z 36003KT 11/M08 A3031 RMK A01 T01071080  RH  026%=      5-min Rain = 0
KME1 120324Z 00004KT 11/M08 A3031 RMK A01 T01061081  RH  026%=      5-min Rain = 0
KME1 120325Z 36003KT 11/M08 A3031 RMK A01 T01061081  RH  026%=      5-min Rain = 0
KME1 120326Z 00003KT 11/M08 A3031 RMK A01 T01061080  RH  026%=      5-min Rain = 0
KME1 120327Z 36003KT 11/M08 A3031 RMK A01 T01061080  RH  026%=      5-min Rain = 0
KME1 120328Z 00003KT 11/M08 A3031 RMK A01 T01061081  RH  026%=      5-min Rain = 0
KME1 120329Z 36003KT 11/M08 A3031 RMK A01 T01061080  RH  026%=      5-min Rain = 0
KME1 120330Z 36002KT 11/M08 A3031 RMK A01 T01061080  RH  026%=      5-min Rain = 0
KME1 120331Z 36002KT 11/M08 A3031 RMK A01 T01051080  RH  026%=      5-min Rain = 0
KME1 120332Z 36002KT 11/M08 A3031 RMK A01 T01051080  RH  027%=      5-min Rain = 0
KME1 120333Z 35002KT 10/M08 A3031 RMK A01 T01041080  RH  027%=      5-min Rain = 0
KME1 120334Z 36002KT 10/M08 A3031 RMK A01 T01041079  RH  027%=      5-min Rain = 0
KME1 120335Z 00002KT 10/M08 A3031 RMK A01 T01041079  RH  027%=      5-min Rain = 0
KME1 120336Z 00002KT 10/M08 A3031 RMK A01 T01031080  RH  027%=      5-min Rain = 0
KME1 120337Z 00001KT 10/M08 A3031 RMK A01 T01031079  RH  027%=      5-min Rain = 0
KME1 120338Z 35001KT 10/M08 A3031 RMK A01 T01031076  RH  028%=      5-min Rain = 0
KME1 120339Z 34000KT 10/M08 A3031 RMK A01 T01021078  RH  028%=      5-min Rain = 0
KME1 120340Z 33000KT 10/M08 A3031 RMK A01 T01011076  RH  028%=      5-min Rain = 0
KME1 120341Z 32001KT 10/M08 A3031 RMK A01 T01011076  RH  028%=      5-min Rain = 0
KME1 120342Z 32001KT 10/M08 A3031 RMK A01 T01001079  RH  028%=      5-min Rain = 0
KME1 120343Z 32001KT 10/M08 A3031 RMK A01 T01001079  RH  028%=      5-min Rain = 0
KME1 120344Z 33001KT 10/M08 A3031 RMK A01 T01001079  RH  028%=      5-min Rain = 0
KME1 120345Z 33001KT 10/M08 A3031 RMK A01 T01001078  RH  028%=      5-min Rain = 0
KME1 120346Z 33001KT 10/M08 A3031 RMK A01 T00991078  RH  028%=      5-min Rain = 0
KME1 120347Z 33001KT 10/M08 A3031 RMK A01 T00991079  RH  028%=      5-min Rain = 0
KME1 120348Z 34000KT 10/M08 A3031 RMK A01 T00991079  RH  028%=      5-min Rain = 0
KME1 120349Z 00000KT 10/M08 A3031 RMK A01 T00981078  RH  028%=      5-min Rain = 0
KME1 120350Z 00000KT 10/M08 A3031 RMK A01 T00971078  RH  028%=      5-min Rain = 0
KME1 120351Z 02000KT 10/M08 A3031 RMK A01 T00971080  RH  028%=      5-min Rain = 0
KME1 120352Z 36000KT 10/M08 A3031 RMK A01 T00971081  RH  028%=      5-min Rain = 0
KME1 120353Z 36001KT 10/M08 A3031 RMK A01 T00971081  RH  028%=      5-min Rain = 0
KME1 120354Z 35001KT 10/M08 A3031 RMK A01 T00971080  RH  028%=      5-min Rain = 0
KME1 120355Z 36001KT 10/M08 A3031 RMK A01 T00961080  RH  028%=      5-min Rain = 0
KME1 120356Z 00002KT 10/M08 A3031 RMK A01 T00961081  RH  028%=      5-min Rain = 0
KME1 120357Z 00002KT 10/M08 A3031 RMK A01 T00961081  RH  028%=      5-min Rain = 0
KME1 120358Z 00002KT 10/M08 A3031 RMK A01 T00971081  RH  028%=      5-min Rain = 0
KME1 120359Z 01002KT 10/M08 A3031 RMK A01 T00971081  RH  028%=      5-min Rain = 0
KME1 120400Z 01002KT 10/M08 A3031 RMK A01 T00971081  RH  028%=      5-min Rain = 0
KME1 120401Z 01002KT 10/M08 A3031 RMK A01 T00971082  RH  028%=      5-min Rain = 0
KME1 120402Z 00002KT 10/M08 A3031 RMK A01 T00971082  RH  028%=      5-min Rain = 0
KME1 120403Z 01003KT 10/M08 A3031 RMK A01 T00971081  RH  028%=      5-min Rain = 0
KME1 120404Z 01003KT 10/M08 A3031 RMK A01 T00981079  RH  028%=      5-min Rain = 0
KME1 120405Z 01003KT 10/M08 A3031 RMK A01 T00971078  RH  028%=      5-min Rain = 0
KME1 120406Z 01003KT 10/M08 A3031 RMK A01 T00961078  RH  028%=      5-min Rain = 0
KME1 120407Z 01003KT 10/M08 A3031 RMK A01 T00951077  RH  029%=      5-min Rain = 0
KME1 120408Z 01003KT 09/M08 A3031 RMK A01 T00941076  RH  029%=      5-min Rain = 0
KME1 120409Z 01004KT 09/M08 A3031 RMK A01 T00931075  RH  030%=      5-min Rain = 0
KME1 120410Z 01004KT 09/M07 A3031 RMK A01 T00921074  RH  030%=      5-min Rain = 0
KME1 120411Z 01004KT 09/M07 A3031 RMK A01 T00911072  RH  031%=      5-min Rain = 0
KME1 120412Z 01004KT 09/M07 A3031 RMK A01 T00901071  RH  031%=      5-min Rain = 0
KME1 120413Z 01004KT 09/M07 A3031 RMK A01 T00891069  RH  032%=      5-min Rain = 0
KME1 120414Z 01004KT 09/M07 A3031 RMK A01 T00881068  RH  032%=      5-min Rain = 0
KME1 120415Z 01004KT 09/M07 A3031 RMK A01 T00881068  RH  033%=      5-min Rain = 0
KME1 120416Z 00004KT 09/M07 A3031 RMK A01 T00871067  RH  033%=      5-min Rain = 0
KME1 120417Z 36004KT 09/M07 A3031 RMK A01 T00871066  RH  033%=      5-min Rain = 0
KME1 120418Z 36005KT 09/M07 A3031 RMK A01 T00861065  RH  034%=      5-min Rain = 0
KME1 120419Z 36005KT 09/M07 A3031 RMK A01 T00851066  RH  034%=      5-min Rain = 0
KME1 120420Z 35005KT 09/M07 A3031 RMK A01 T00851066  RH  034%=      5-min Rain = 0
KME1 120421Z 35005KT 08/M07 A3031 RMK A01 T00841067  RH  034%=      5-min Rain = 0
KME1 120422Z 36005KT 09/M07 A3031 RMK A01 T00851067  RH  034%=      5-min Rain = 0
KME1 120423Z 35005KT 08/M07 A3031 RMK A01 T00841067  RH  034%=      5-min Rain = 0
KME1 120424Z 35005KT 08/M07 A3031 RMK A01 T00841068  RH  033%=      5-min Rain = 0
KME1 120425Z 35005KT 09/M07 A3032 RMK A01 T00851069  RH  033%=      5-min Rain = 0
KME1 120426Z 36006KT 09/M07 A3032 RMK A01 T00851070  RH  033%=      5-min Rain = 0
KME1 120427Z 36006KT 09/M07 A3032 RMK A01 T00861070  RH  032%=      5-min Rain = 0
KME1 120428Z 00006KT 09/M07 A3032 RMK A01 T00871071  RH  032%=      5-min Rain = 0
KME1 120429Z 00005KT 09/M07 A3032 RMK A01 T00881073  RH  031%=      5-min Rain = 0
KME1 120430Z 00006KT 09/M07 A3032 RMK A01 T00891072  RH  031%=      5-min Rain = 0
KME1 120431Z 00006KT 09/M07 A3032 RMK A01 T00891073  RH  031%=      5-min Rain = 0
KME1 120432Z 00005KT 09/M07 A3032 RMK A01 T00901074  RH  030%=      5-min Rain = 0
KME1 120433Z 36005KT 09/M07 A3032 RMK A01 T00911074  RH  030%=      5-min Rain = 0
KME1 120434Z 36005KT 09/M08 A3032 RMK A01 T00921076  RH  030%=      5-min Rain = 0
KME1 120435Z 36006KT 09/M08 A3032 RMK A01 T00921076  RH  030%=      5-min Rain = 0
KME1 120436Z 35005KT 09/M08 A3032 RMK A01 T00921076  RH  030%=      5-min Rain = 0
KME1 120437Z 00006KT 09/M08 A3032 RMK A01 T00931077  RH  029%=      5-min Rain = 0
KME1 120438Z 00006KT 09/M08 A3032 RMK A01 T00931077  RH  029%=      5-min Rain = 0
KME1 120439Z 00006KT 09/M08 A3032 RMK A01 T00941077  RH  029%=      5-min Rain = 0
KME1 120440Z 00006KT 09/M08 A3032 RMK A01 T00941077  RH  029%=      5-min Rain = 0
KME1 120441Z 00006KT 09/M08 A3031 RMK A01 T00941078  RH  029%=      5-min Rain = 0
KME1 120442Z 00006KT 09/M08 A3031 RMK A01 T00941078  RH  029%=      5-min Rain = 0
KME1 120443Z 36006KT 09/M08 A3031 RMK A01 T00941078  RH  029%=      5-min Rain = 0
KME1 120444Z 36006KT 09/M08 A3031 RMK A01 T00941078  RH  029%=      5-min Rain = 0
KME1 120445Z 36006KT 10/M08 A3031 RMK A01 T00951078  RH  029%=      5-min Rain = 0
KME1 120446Z 36006KT 10/M08 A3031 RMK A01 T00951078  RH  029%=      5-min Rain = 0
KME1 120447Z 00006KT 10/M08 A3032 RMK A01 T00951079  RH  029%=      5-min Rain = 0
KME1 120448Z 36005KT 10/M08 A3032 RMK A01 T00951079  RH  029%=      5-min Rain = 0
KME1 120449Z 36005KT 10/M08 A3032 RMK A01 T00951079  RH  028%=      5-min Rain = 0
KME1 120450Z 36006KT 10/M08 A3032 RMK A01 T00951079  RH  028%=      5-min Rain = 0
KME1 120451Z 36006KT 10/M08 A3032 RMK A01 T00961079  RH  028%=      5-min Rain = 0
KME1 120452Z 00006KT 10/M08 A3032 RMK A01 T00951080  RH  028%=      5-min Rain = 0
KME1 120453Z 36006KT 10/M08 A3032 RMK A01 T00961081  RH  028%=      5-min Rain = 0
KME1 120454Z 36005KT 10/M08 A3032 RMK A01 T00971081  RH  028%=      5-min Rain = 0
KME1 120455Z 36005KT 10/M08 A3032 RMK A01 T00971081  RH  028%=      5-min Rain = 0
KME1 120456Z 36005KT 10/M08 A3032 RMK A01 T00971081  RH  028%=      5-min Rain = 0
KME1 120457Z 01005KT 10/M08 A3032 RMK A01 T00971081  RH  027%=      5-min Rain = 0
KME1 120458Z 00005KT 10/M08 A3032 RMK A01 T00981082  RH  027%=      5-min Rain = 0
KME1 120459Z 00004KT 10/M08 A3032 RMK A01 T00981081  RH  027%=      5-min Rain = 0

Page generated in 0.1258 seconds.